EW2682 / D-AGWH 7700 Squawk Report (17th of January, 2019)

Aircraft A319 Reg No. D-AGWH Age 11 years old
Model A319 Jet engines 2 First flight 17-12-07
Registered 27-09-17 Rollout 12-07 Delivered 08-01-08
Construction No. 3352 Line No. N/A Series 132
ADSHEX 3C5EE8 Airline name Eurowings Owner N/A
Airfield based Dusseldorf~Nordrhein-Westfalen~D First tracked 2017-07-13 05:32:00

Flight history for D-AGWH

Route Flight No Date Playback
Munich Airport (MUC) - Ibiza (IBZ) EW1938 2019-10-20 07:10:00
Capodichino (NAP) - Munich Airport (MUC) EW1897 2019-10-20 06:02:00
Munich Airport (MUC) - Capodichino (NAP) EW1896 2019-10-19 18:17:00
Makedonia (SKG) - Munich Airport (MUC) EW1701 2019-10-19 08:59:00
Munich Airport (MUC) - Makedonia (SKG) EW1700 2019-10-19 07:01:00
Hamburg (HAM) - Munich Airport (MUC) EW1979 2019-10-19 04:24:00
Munich Airport (MUC) - Hamburg (HAM) EW1978 2019-10-18 19:07:00
Dusseldorf (DUS) - Munich Airport (MUC) EW1917 2019-10-18 17:08:00
Munich Airport (MUC) - Dusseldorf (DUS) EW1916 2019-10-18 15:04:00
Dusseldorf (DUS) - Munich Airport (MUC) EW1915 2019-10-18 12:23:00
Munich Airport (MUC) - Dusseldorf (DUS) EW1914 2019-10-18 11:21:00
Hamburg (HAM) - Munich Airport (MUC) EW1973 2019-10-18 09:15:00
Munich Airport (MUC) - Hamburg (HAM) EW1972 2019-10-18 06:50:00
???? N/A 2019-10-17 15:40:00
???? 4U6903 2019-10-10 14:58:00
Munich Airport (MUC) - Split (SPU) EW1738 2019-10-08 05:23:00
Hamburg (HAM) - Munich Airport (MUC) EW1979 2019-10-08 04:16:00
Munich Airport (MUC) - Hamburg (HAM) EW1978 2019-10-07 19:17:00
Dusseldorf (DUS) - Munich Airport (MUC) EW1917 2019-10-07 17:23:00
Munich Airport (MUC) - Dusseldorf (DUS) EW1916 2019-10-07 15:08:00
Time Lat Lon Altitude Heading Speed Vertical Rate
2019-01-17 13:40:56 GMT 40.521709 22.980667 0 59 4 0
2019-01-17 13:40:45 GMT 40.521652 22.980465 0 14 4 0
2019-01-17 13:40:34 GMT 40.521385 22.980371 0 14 10 0
2019-01-17 13:40:17 GMT 40.520779 22.979778 0 67 16 0
2019-01-17 13:40:14 GMT 40.520702 22.979507 0 67 19 0
2019-01-17 13:40:05 GMT 40.520382 22.978531 0 64 20 0
2019-01-17 13:39:50 GMT 40.520290 22.976891 0 101 19 0
2019-01-17 13:39:28 GMT 40.520733 22.974550 0 104 16 0
2019-01-17 13:39:19 GMT 40.520859 22.973879 0 104 15 0
2019-01-17 13:39:09 GMT 40.521034 22.973007 0 104 14 0
2019-01-17 13:39:04 GMT 40.521103 22.972584 0 120 13 0
2019-01-17 13:38:54 GMT 40.521538 22.972183 0 165 17 0
2019-01-17 13:38:42 GMT 40.522583 22.971849 0 165 20 0
2019-01-17 13:38:30 GMT 40.523571 22.971539 0 165 18 0
2019-01-17 13:38:23 GMT 40.524048 22.971397 0 165 17 0
2019-01-17 13:38:13 GMT 40.524776 22.971161 0 168 16 0
2019-01-17 13:38:03 GMT 40.525478 22.970930 0 165 14 0
2019-01-17 13:37:53 GMT 40.526024 22.970764 0 168 12 0
2019-01-17 13:37:36 GMT 40.526779 22.970459 0 120 10 0
2019-01-17 13:37:31 GMT 40.526890 22.970196 0 84 10 0
2019-01-17 13:37:22 GMT 40.526783 22.969494 0 61 18 0
2019-01-17 13:37:01 GMT 40.525063 22.969229 0 345 37 0
2019-01-17 13:36:51 GMT 40.522697 22.969978 0 345 82 0
2019-01-17 13:36:43 GMT 40.519020 22.971165 -175 347 112 -64
2019-01-17 13:36:30 GMT 40.512222 22.973328 -150 347 134 -256
2019-01-17 13:36:21 GMT 40.506638 22.975159 0 346 136 -832
2019-01-17 13:36:08 GMT 40.498726 22.977655 200 347 136 -768
2019-01-17 13:36:02 GMT 40.494720 22.978905 275 346 136 -896
2019-01-17 13:35:51 GMT 40.488342 22.980965 425 347 133 -832
2019-01-17 13:35:41 GMT 40.482101 22.982971 550 347 133 -832
2019-01-17 13:35:31 GMT 40.476425 22.984863 700 346 134 -832
2019-01-17 13:35:22 GMT 40.470234 22.986769 825 348 136 -896
2019-01-17 13:35:11 GMT 40.463856 22.988642 975 347 140 -960
2019-01-17 13:35:03 GMT 40.458878 22.990265 1,125 346 143 -896
2019-01-17 13:34:59 GMT 40.456512 22.991089 1,175 346 143 -896
2019-01-17 13:34:52 GMT 40.451752 22.992638 1,275 348 148 -832
2019-01-17 13:34:47 GMT 40.448456 22.993591 1,350 348 149 -832
2019-01-17 13:34:42 GMT 40.444817 22.994572 1,425 349 154 -832
2019-01-17 13:34:30 GMT 40.436554 22.997009 1,575 347 164 -704
2019-01-17 13:34:27 GMT 40.434158 22.997755 1,625 347 169 -640
2019-01-17 13:34:20 GMT 40.428944 22.999378 1,700 346 169 -704
2019-01-17 13:34:07 GMT 40.419205 23.002441 1,750 347 167 64
2019-01-17 13:33:57 GMT 40.411068 23.004248 1,750 353 175 -64
2019-01-17 13:33:50 GMT 40.404968 23.005245 1,800 358 175 -512
2019-01-17 13:33:36 GMT 40.394165 23.003784 1,850 15 169 64
2019-01-17 13:33:27 GMT 40.387932 22.999754 1,800 31 164 384
2019-01-17 13:33:17 GMT 40.382156 22.993948 1,775 45 156 -128
2019-01-17 13:33:08 GMT 40.377731 22.987427 1,800 52 153 -256
2019-01-17 13:32:58 GMT 40.373734 22.980089 1,825 58 156 -128
2019-01-17 13:32:55 GMT 40.372696 22.977783 1,825 60 156 -64
2019-01-17 13:32:50 GMT 40.370682 22.972961 1,800 62 165 -64
2019-01-17 13:32:46 GMT 40.369495 22.969915 1,800 64 168 -128
2019-01-17 13:32:39 GMT 40.367294 22.963379 1,825 69 176 -128
2019-01-17 13:32:36 GMT 40.366470 22.960388 1,850 70 178 -192
2019-01-17 13:32:30 GMT 40.364700 22.952999 1,875 75 184 -192
2019-01-17 13:32:24 GMT 40.363583 22.947256 1,900 76 186 -256
2019-01-17 13:32:19 GMT 40.362606 22.941639 1,925 77 189 -320
2019-01-17 13:32:15 GMT 40.361862 22.937393 1,950 77 192 -512
2019-01-17 13:32:09 GMT 40.360703 22.930298 2,000 79 195 -512
2019-01-17 13:32:05 GMT 40.360092 22.925594 2,025 86 198 -448
2019-01-17 13:31:58 GMT 40.360016 22.917358 2,075 96 201 -320
2019-01-17 13:31:54 GMT 40.360699 22.912800 2,100 107 204 -320
2019-01-17 13:31:49 GMT 40.362808 22.906616 2,150 125 210 -576
2019-01-17 13:31:44 GMT 40.365772 22.901438 2,200 135 213 -896
2019-01-17 13:31:38 GMT 40.370102 22.896444 2,300 141 215 -896
2019-01-17 13:31:33 GMT 40.373749 22.892700 2,375 141 217 -768
2019-01-17 13:31:29 GMT 40.377502 22.888828 2,425 141 220 -768
2019-01-17 13:31:22 GMT 40.382492 22.883728 2,500 141 224 -768
2019-01-17 13:31:18 GMT 40.386116 22.880028 2,575 140 228 -832
2019-01-17 13:31:13 GMT 40.390503 22.875244 2,650 139 231 -1088
2019-01-17 13:31:09 GMT 40.394531 22.870667 2,750 139 235 -1024
2019-01-17 13:30:59 GMT 40.402359 22.861816 2,900 139 243 -960
2019-01-17 13:30:51 GMT 40.408554 22.855122 3,050 140 247 -1600
2019-01-17 13:30:48 GMT 40.411606 22.851746 3,125 139 249 -1792
2019-01-17 13:30:38 GMT 40.420486 22.841797 3,450 139 252 -1728
2019-01-17 13:30:28 GMT 40.429455 22.831900 3,700 140 256 -1472
2019-01-17 13:30:18 GMT 40.438843 22.821655 3,925 140 259 -1280
2019-01-17 13:30:10 GMT 40.446167 22.813599 4,100 139 262 -1344
2019-01-17 13:30:07 GMT 40.448318 22.811218 4,175 139 263 -1344
2019-01-17 13:29:57 GMT 40.457794 22.800476 4,425 138 266 -1472
2019-01-17 13:29:47 GMT 40.466766 22.790283 4,650 138 267 -1536
2019-01-17 13:29:38 GMT 40.476654 22.779114 4,950 139 271 -1472
2019-01-17 13:29:27 GMT 40.485947 22.768494 5,200 137 273 -1536
2019-01-17 13:29:17 GMT 40.495834 22.756775 5,450 138 276 -1600
2019-01-17 13:29:07 GMT 40.505447 22.745544 5,725 138 279 -1728
2019-01-17 13:28:56 GMT 40.516228 22.733086 6,050 139 281 -1792
2019-01-17 13:28:45 GMT 40.526413 22.721802 6,400 140 282 -1856
2019-01-17 13:28:35 GMT 40.537083 22.710238 6,700 140 283 -1728
2019-01-17 13:28:24 GMT 40.548069 22.698690 7,050 141 284 -1856
2019-01-17 13:28:17 GMT 40.556488 22.690002 7,300 141 284 -1856
2019-01-17 13:28:13 GMT 40.559006 22.687378 7,350 141 285 -1856
2019-01-17 13:28:06 GMT 40.567062 22.678841 7,600 140 285 -1984
2019-01-17 13:28:03 GMT 40.570137 22.675468 7,700 140 286 -1984
2019-01-17 13:27:56 GMT 40.577133 22.667786 7,950 139 286 -2048
2019-01-17 13:27:53 GMT 40.580200 22.664429 8,050 139 286 -1984
2019-01-17 13:27:46 GMT 40.587082 22.656805 8,275 140 286 -1728
2019-01-17 13:27:42 GMT 40.590714 22.652809 8,375 140 288 -1408
2019-01-17 13:27:36 GMT 40.597462 22.645445 8,500 140 291 -1536
2019-01-17 13:27:32 GMT 40.601761 22.640808 8,625 140 292 -1664
2019-01-17 13:27:26 GMT 40.608170 22.633789 8,775 139 293 -1664
2019-01-17 13:27:21 GMT 40.612610 22.628906 8,925 139 294 -1536
2019-01-17 13:27:15 GMT 40.618881 22.621948 9,075 139 295 -1472
2019-01-17 13:27:10 GMT 40.623901 22.616293 9,175 139 295 -1472
2019-01-17 13:27:05 GMT 40.629227 22.610352 9,300 139 297 -1472
2019-01-17 13:27:00 GMT 40.634422 22.604557 9,425 139 297 -1536
2019-01-17 13:26:56 GMT 40.639572 22.598755 9,575 139 297 -1664
2019-01-17 13:26:50 GMT 40.645458 22.592134 9,700 139 297 -1728
2019-01-17 13:26:46 GMT 40.650558 22.586304 9,850 139 297 -1664
2019-01-17 13:26:39 GMT 40.656601 22.579468 10,000 139 296 -1536
2019-01-17 13:26:35 GMT 40.660725 22.574844 10,100 139 297 -1536
2019-01-17 13:26:29 GMT 40.667568 22.567165 10,250 139 297 -1408
2019-01-17 13:26:25 GMT 40.671844 22.562378 10,350 139 298 -1216
2019-01-17 13:26:18 GMT 40.678482 22.554932 10,500 139 300 -1344
2019-01-17 13:26:15 GMT 40.682140 22.550875 10,575 139 300 -1536
2019-01-17 13:26:08 GMT 40.689217 22.542948 10,750 139 300 -1472
2019-01-17 13:26:05 GMT 40.692856 22.538879 10,825 139 300 -1280
2019-01-17 13:25:55 GMT 40.703835 22.526653 10,950 139 302 64
2019-01-17 13:25:45 GMT 40.714554 22.514771 10,950 139 313 0
2019-01-17 13:25:34 GMT 40.726410 22.501623 10,975 139 327 -256
2019-01-17 13:25:25 GMT 40.738468 22.488327 11,000 140 343 128
2019-01-17 13:25:14 GMT 40.750717 22.474854 10,950 140 361 64
2019-01-17 13:25:04 GMT 40.763626 22.460571 10,950 140 375 -256
2019-01-17 13:24:54 GMT 40.778038 22.444695 11,125 140 385 -1792
2019-01-17 13:24:43 GMT 40.791870 22.429443 11,550 139 388 -2816
2019-01-17 13:24:33 GMT 40.805695 22.414124 12,025 139 388 -2816
2019-01-17 13:24:24 GMT 40.819427 22.398804 12,475 139 390 -2816
2019-01-17 13:24:13 GMT 40.833946 22.382708 12,950 139 391 -2816
2019-01-17 13:24:02 GMT 40.848610 22.366167 13,425 139 392 -2944
2019-01-17 13:23:51 GMT 40.863831 22.348877 14,000 139 392 -2688
2019-01-17 13:23:41 GMT 40.878357 22.332396 14,400 139 395 -2496
2019-01-17 13:23:33 GMT 40.889576 22.320036 14,750 139 397 -2496
2019-01-17 13:23:30 GMT 40.892990 22.316223 14,875 139 398 -2496
2019-01-17 13:23:20 GMT 40.907219 22.300373 15,275 139 402 -2496
2019-01-17 13:23:09 GMT 40.922516 22.283325 15,725 139 404 -2496
2019-01-17 13:22:59 GMT 40.937294 22.266853 16,150 139 407 -2496
2019-01-17 13:22:53 GMT 40.947487 22.255491 16,450 139 408 -2496
2019-01-17 13:22:49 GMT 40.952271 22.250122 16,575 139 408 -2496
2019-01-17 13:22:42 GMT 40.962383 22.238888 16,850 139 410 -2496
2019-01-17 13:22:38 GMT 40.967365 22.233332 17,025 139 410 -2496
2019-01-17 13:22:32 GMT 40.977905 22.221558 17,325 139 412 -2496
2019-01-17 13:22:26 GMT 40.984589 22.214111 17,500 139 412 -2496
2019-01-17 13:22:21 GMT 40.992783 22.204929 17,725 139 413 -2496
2019-01-17 13:22:17 GMT 40.997810 22.199312 17,900 139 413 -2496
2019-01-17 13:22:10 GMT 41.008118 22.187805 18,200 139 414 -2496
2019-01-17 13:22:06 GMT 41.013870 22.181396 18,375 139 414 -2560
2019-01-17 13:22:01 GMT 41.023270 22.171021 18,625 139 415 -2496
2019-01-17 13:21:55 GMT 41.030914 22.162476 18,825 139 415 -2432
2019-01-17 13:21:50 GMT 41.038033 22.154554 19,000 139 414 -2496
2019-01-17 13:21:45 GMT 41.045105 22.146667 19,250 139 415 -2432
2019-01-17 13:21:39 GMT 41.054047 22.136702 19,400 139 415 -2496
2019-01-17 13:21:35 GMT 41.060375 22.129648 19,650 139 417 -2496
2019-01-17 13:21:29 GMT 41.069221 22.119785 19,900 139 417 -2496
2019-01-17 13:21:22 GMT 41.080124 22.107544 20,225 139 419 -2496
2019-01-17 13:21:15 GMT 41.089520 22.097063 20,450 139 421 -2432
2019-01-17 13:21:12 GMT 41.095245 22.090633 20,650 139 423 -2368
2019-01-17 13:21:04 GMT 41.106766 22.077820 20,925 139 425 -2368
2019-01-17 13:21:01 GMT 41.111115 22.072937 21,050 139 427 -2368
2019-01-17 13:20:56 GMT 41.117775 22.065416 21,225 139 427 -2432
2019-01-17 13:20:53 GMT 41.122990 22.059610 21,350 139 429 -2432
2019-01-17 13:20:50 GMT 41.126633 22.055542 21,475 139 430 -2432
2019-01-17 13:20:47 GMT 41.131138 22.050434 21,600 139 432 -2432
2019-01-17 13:20:43 GMT 41.138168 22.042542 21,775 139 434 -2368
2019-01-17 13:20:40 GMT 41.141846 22.038387 21,875 139 434 -2432
2019-01-17 13:20:37 GMT 41.147339 22.032207 22,000 139 436 -2560
2019-01-17 13:20:31 GMT 41.157207 22.021158 22,300 139 438 -2560
2019-01-17 13:20:27 GMT 41.163071 22.014587 22,450 139 439 -2560
2019-01-17 13:20:20 GMT 41.172939 22.003429 22,750 139 441 -2560
2019-01-17 13:20:16 GMT 41.180248 21.995192 22,900 139 444 -2496
2019-01-17 13:20:11 GMT 41.188118 21.986326 23,125 139 446 -2496
2019-01-17 13:20:06 GMT 41.196716 21.976562 23,375 139 449 -2560
2019-01-17 13:20:01 GMT 41.204781 21.967539 23,600 139 450 -2752
2019-01-17 13:19:54 GMT 41.214046 21.957050 23,900 139 451 -3264
2019-01-17 13:19:50 GMT 41.220425 21.949871 24,125 139 452 -3584
2019-01-17 13:19:44 GMT 41.232468 21.936340 24,575 139 452 -3648
2019-01-17 13:19:40 GMT 41.237457 21.930664 24,750 139 452 -3648
2019-01-17 13:19:34 GMT 41.246567 21.920471 25,125 139 451 -3648
2019-01-17 13:19:30 GMT 41.252747 21.913452 25,700 139 450 -3712
2019-01-17 13:19:23 GMT 41.263252 21.901621 25,825 139 449 -3712
2019-01-17 13:19:19 GMT 41.269318 21.894775 26,025 139 447 -3712
2019-01-17 13:19:14 GMT 41.279388 21.883423 26,450 139 445 -3520
2019-01-17 13:19:09 GMT 41.286015 21.875902 26,675 139 445 -3328
2019-01-17 13:19:02 GMT 41.296234 21.864380 27,050 139 444 -3072
2019-01-17 13:18:58 GMT 41.302544 21.857300 27,200 139 444 -3072
2019-01-17 13:18:48 GMT 41.318665 21.839111 27,775 139 444 -3072
2019-01-17 13:18:38 GMT 41.335098 21.820557 28,300 139 444 -3072
2019-01-17 13:18:30 GMT 41.348419 21.805542 28,775 139 445 -3072
2019-01-17 13:18:27 GMT 41.351486 21.802063 28,875 139 445 -3072
2019-01-17 13:18:22 GMT 41.360405 21.791945 29,175 139 446 -3072
2019-01-17 13:18:19 GMT 41.364410 21.787449 29,275 139 446 -3072
2019-01-17 13:18:09 GMT 41.380280 21.769531 29,725 139 446 -3008
2019-01-17 13:18:06 GMT 41.385124 21.764103 29,975 139 446 -2752
2019-01-17 13:17:59 GMT 41.395832 21.751972 30,300 139 445 -2368
2019-01-17 13:17:56 GMT 41.400814 21.746351 30,400 139 446 -2240
2019-01-17 13:17:49 GMT 41.411499 21.734203 30,625 139 446 -2240
2019-01-17 13:17:45 GMT 41.417618 21.727251 30,825 139 446 -2112
2019-01-17 13:17:38 GMT 41.428745 21.714605 31,000 139 446 -2112
2019-01-17 13:17:35 GMT 41.433399 21.709305 31,175 139 446 -2112
2019-01-17 13:17:28 GMT 41.444733 21.696438 31,400 139 445 -2112
2019-01-17 13:17:24 GMT 41.449585 21.690945 31,550 139 445 -2112
2019-01-17 13:17:17 GMT 41.461239 21.677687 31,825 139 445 -2112
2019-01-17 13:17:14 GMT 41.466751 21.671469 31,950 139 444 -2112
2019-01-17 13:17:09 GMT 41.475723 21.661295 32,175 139 444 -2112
2019-01-17 13:17:03 GMT 41.482979 21.653095 32,350 139 444 -2112
2019-01-17 13:16:58 GMT 41.490967 21.644066 32,525 139 444 -2112
2019-01-17 13:16:53 GMT 41.499664 21.634201 32,700 139 443 -2112
2019-01-17 13:16:47 GMT 41.507675 21.625090 32,925 139 442 -2112
2019-01-17 13:16:42 GMT 41.515869 21.615788 33,100 139 441 -2112
2019-01-17 13:16:38 GMT 41.523651 21.606985 33,275 139 441 -2112
2019-01-17 13:16:30 GMT 41.535164 21.593884 33,500 139 441 -2240
2019-01-17 13:16:27 GMT 41.539959 21.588390 33,675 139 441 -2240
2019-01-17 13:16:21 GMT 41.548340 21.578873 33,900 139 440 -2240
2019-01-17 13:16:17 GMT 41.555923 21.570156 34,075 139 438 -2240
2019-01-17 13:16:11 GMT 41.564026 21.560919 34,275 139 438 -2240
2019-01-17 13:16:06 GMT 41.572174 21.551680 34,450 139 437 -2304
2019-01-17 13:16:00 GMT 41.580414 21.542316 34,675 139 437 -2304
2019-01-17 13:15:56 GMT 41.588791 21.532766 34,900 139 438 -2432
2019-01-17 13:15:48 GMT 41.601128 21.518703 35,225 139 437 -2624
2019-01-17 13:15:39 GMT 41.621567 21.495314 35,750 139 436 -2432
2019-01-17 13:15:35 GMT 41.621567 21.495314 35,800 139 436 -2304
2019-01-17 13:15:27 GMT 41.631618 21.483765 36,075 139 437 -2240
2019-01-17 13:15:24 GMT 41.637314 21.477209 36,225 139 437 -2368
2019-01-17 13:15:17 GMT 41.647430 21.465599 36,475 139 436 -2176
2019-01-17 13:15:13 GMT 41.653198 21.458982 36,625 139 437 -1920
2019-01-17 13:15:07 GMT 41.662762 21.448059 36,800 139 436 -1216
2019-01-17 13:15:02 GMT 41.669540 21.440256 36,900 139 437 -832
2019-01-17 13:14:56 GMT 41.679245 21.429146 36,975 139 436 -384
2019-01-17 13:14:52 GMT 41.685150 21.422403 37,000 139 436 -192
2019-01-17 13:14:46 GMT 41.694790 21.411331 37,000 139 436 0
2019-01-17 13:14:42 GMT 41.701168 21.403986 37,000 139 436 0
2019-01-17 13:14:36 GMT 41.709320 21.394688 37,000 139 436 0
2019-01-17 13:14:32 GMT 41.716904 21.385910 37,000 139 436 64
2019-01-17 13:14:26 GMT 41.725098 21.376520 37,000 139 436 64
2019-01-17 13:14:21 GMT 41.733124 21.367348 37,000 139 436 0
2019-01-17 13:14:17 GMT 41.740551 21.358763 37,000 139 436 0
2019-01-17 13:14:14 GMT 41.743744 21.355112 37,000 139 436 0
2019-01-17 13:14:11 GMT 41.749466 21.348495 37,000 139 436 0
2019-01-17 13:14:04 GMT 41.758301 21.338259 37,000 139 436 0
2019-01-17 13:14:00 GMT 41.765133 21.330402 37,000 139 436 0
2019-01-17 13:13:55 GMT 41.772125 21.322403 37,000 139 436 0
2019-01-17 13:13:50 GMT 41.780823 21.312414 37,000 139 436 0
2019-01-17 13:13:44 GMT 41.789017 21.302990 37,000 139 436 0
2019-01-17 13:13:39 GMT 41.796753 21.294064 37,000 139 436 0
2019-01-17 13:13:35 GMT 41.802746 21.287098 37,000 139 436 0
2019-01-17 13:13:32 GMT 41.807217 21.281986 37,000 139 436 0
2019-01-17 13:13:29 GMT 41.812500 21.275898 37,000 139 436 0
2019-01-17 13:13:24 GMT 41.819782 21.267551 37,000 139 436 0
2019-01-17 13:13:18 GMT 41.829575 21.256235 37,000 139 436 0
2019-01-17 13:13:11 GMT 41.839050 21.245375 37,000 139 436 0
2019-01-17 13:13:06 GMT 41.847343 21.235806 37,000 139 436 0
2019-01-17 13:13:01 GMT 41.855164 21.226833 37,000 139 436 0
2019-01-17 13:12:57 GMT 41.861263 21.219837 37,000 139 436 0
2019-01-17 13:12:53 GMT 41.867249 21.212976 37,000 139 436 0
2019-01-17 13:12:46 GMT 41.877319 21.201303 37,000 139 436 0
2019-01-17 13:12:43 GMT 41.882675 21.195124 37,000 139 436 0
2019-01-17 13:12:39 GMT 41.888123 21.188795 37,000 139 436 0
2019-01-17 13:12:36 GMT 41.892731 21.183430 37,000 139 436 0
2019-01-17 13:12:33 GMT 41.898087 21.177233 37,000 139 436 0
2019-01-17 13:12:29 GMT 41.903343 21.171101 37,000 139 436 0
2019-01-17 13:12:26 GMT 41.908401 21.165285 37,000 139 436 0
2019-01-17 13:12:22 GMT 41.914516 21.158134 37,000 139 436 0
2019-01-17 13:12:18 GMT 41.921310 21.150305 37,000 139 436 0
2019-01-17 13:12:14 GMT 41.926712 21.143999 37,000 139 437 0
2019-01-17 13:12:10 GMT 41.932674 21.137119 37,000 139 436 -64
2019-01-17 13:12:06 GMT 41.939655 21.129072 37,025 139 436 -64
2019-01-17 13:12:02 GMT 41.945709 21.122046 37,025 139 436 0
2019-01-17 13:11:59 GMT 41.950130 21.117001 37,025 139 436 0
2019-01-17 13:11:56 GMT 41.955250 21.110996 37,000 139 436 0
2019-01-17 13:11:51 GMT 41.961208 21.104097 37,025 139 436 0
2019-01-17 13:11:48 GMT 41.966656 21.097837 37,025 139 436 0
2019-01-17 13:11:44 GMT 41.972946 21.090567 37,000 139 436 64
2019-01-17 13:11:38 GMT 41.981365 21.080784 37,000 139 436 64
2019-01-17 13:11:34 GMT 41.987419 21.073757 37,000 139 436 64
2019-01-17 13:11:31 GMT 41.992771 21.067562 37,000 139 436 64
2019-01-17 13:11:25 GMT 42.003387 21.055235 37,000 139 436 0
2019-01-17 13:11:20 GMT 42.008644 21.049103 37,000 139 436 -64
2019-01-17 13:11:17 GMT 42.014137 21.042715 37,000 139 436 -64
2019-01-17 13:11:14 GMT 42.018814 21.037258 37,000 139 436 -64
2019-01-17 13:11:10 GMT 42.024078 21.031139 37,000 139 436 0
2019-01-17 13:11:03 GMT 42.035889 21.017408 37,000 139 436 64
2019-01-17 13:10:59 GMT 42.041142 21.011353 37,000 139 436 64
2019-01-17 13:10:55 GMT 42.048031 21.003368 37,000 139 436 64
2019-01-17 13:10:50 GMT 42.054874 20.995384 36,975 138 437 64
2019-01-17 13:10:47 GMT 42.060318 20.989061 36,975 138 437 0
2019-01-17 13:10:43 GMT 42.066185 20.982162 36,975 138 437 0
2019-01-17 13:10:40 GMT 42.070724 20.976894 36,975 138 437 0
2019-01-17 13:10:33 GMT 42.082336 20.963320 37,000 138 437 0
2019-01-17 13:10:29 GMT 42.086288 20.958731 37,000 138 437 0
2019-01-17 13:10:23 GMT 42.095490 20.947994 37,000 138 437 64
2019-01-17 13:10:19 GMT 42.101990 20.940441 36,975 138 437 0
2019-01-17 13:10:12 GMT 42.118649 20.920971 37,000 138 436 0
2019-01-17 13:10:05 GMT 42.124187 20.914520 37,000 138 436 0
2019-01-17 13:10:01 GMT 42.130234 20.907482 37,000 138 436 0
2019-01-17 13:09:58 GMT 42.134804 20.902063 37,000 138 436 0
2019-01-17 13:09:53 GMT 42.142227 20.893187 37,000 137 436 0
2019-01-17 13:09:50 GMT 42.145706 20.888819 37,000 136 436 0
2019-01-17 13:09:46 GMT 42.152168 20.880602 37,000 136 436 0
2019-01-17 13:09:43 GMT 42.156963 20.874344 37,000 135 436 0
2019-01-17 13:09:40 GMT 42.160721 20.869343 37,000 134 436 0
2019-01-17 13:09:34 GMT 42.169418 20.857294 37,000 133 436 0
2019-01-17 13:09:30 GMT 42.175507 20.848804 37,000 133 436 -64
2019-01-17 13:09:25 GMT 42.181915 20.839787 37,000 133 437 0
2019-01-17 13:09:22 GMT 42.185394 20.834885 37,000 133 437 0
2019-01-17 13:09:17 GMT 42.192249 20.825224 37,000 133 437 0
2019-01-17 13:09:12 GMT 42.199791 20.814621 37,000 133 436 64
2019-01-17 13:09:07 GMT 42.207050 20.804401 37,000 133 437 64
2019-01-17 13:09:02 GMT 42.213913 20.794685 37,000 133 437 64
2019-01-17 13:08:57 GMT 42.221237 20.784386 37,000 133 437 64
2019-01-17 13:08:51 GMT 42.229523 20.772713 36,975 133 437 64
2019-01-17 13:08:46 GMT 42.235683 20.764032 36,975 133 437 0
2019-01-17 13:08:41 GMT 42.243549 20.752981 36,975 133 437 -64
2019-01-17 13:08:38 GMT 42.248245 20.746307 37,000 133 437 -64
2019-01-17 13:08:29 GMT 42.260448 20.729029 37,000 133 437 0
2019-01-17 13:08:26 GMT 42.264450 20.723345 37,000 133 437 0
2019-01-17 13:08:19 GMT 42.274384 20.709291 37,000 133 437 64
2019-01-17 13:08:15 GMT 42.279392 20.702267 37,000 133 437 0
2019-01-17 13:08:09 GMT 42.287384 20.690876 37,000 133 437 0
2019-01-17 13:08:06 GMT 42.293060 20.682823 37,000 133 438 0
2019-01-17 13:08:00 GMT 42.300430 20.672337 37,000 133 438 0
2019-01-17 13:07:55 GMT 42.307510 20.662281 37,000 133 438 0
2019-01-17 13:07:50 GMT 42.314484 20.652424 37,000 133 438 0
2019-01-17 13:07:45 GMT 42.322594 20.640947 37,000 133 438 0
2019-01-17 13:07:39 GMT 42.329315 20.631451 37,000 133 438 0
2019-01-17 13:07:34 GMT 42.336868 20.620714 37,000 133 438 -64
2019-01-17 13:07:29 GMT 42.343590 20.611181 37,000 133 439 -128
2019-01-17 13:07:23 GMT 42.351830 20.599558 37,025 133 438 -64
2019-01-17 13:07:19 GMT 42.358112 20.590614 37,025 133 438 -64
2019-01-17 13:07:13 GMT 42.365936 20.579576 37,025 133 438 0
2019-01-17 13:07:07 GMT 42.374084 20.567966 37,025 133 438 0
2019-01-17 13:07:02 GMT 42.381821 20.556917 37,025 133 439 64
2019-01-17 13:06:58 GMT 42.386810 20.549803 37,025 133 438 0
2019-01-17 13:06:51 GMT 42.396751 20.535555 37,025 133 439 0
2019-01-17 13:06:47 GMT 42.401779 20.528400 37,025 133 439 0
2019-01-17 13:06:41 GMT 42.410568 20.515907 37,000 133 439 0
2019-01-17 13:06:37 GMT 42.416382 20.507605 37,025 133 439 0
2019-01-17 13:06:28 GMT 42.428604 20.490189 37,025 133 439 0
2019-01-17 13:06:20 GMT 42.440186 20.473709 37,025 133 439 64
2019-01-17 13:06:16 GMT 42.445770 20.465780 37,000 133 439 64
2019-01-17 13:06:10 GMT 42.454330 20.453547 37,000 133 440 0
2019-01-17 13:06:05 GMT 42.461086 20.443895 37,000 133 440 0
2019-01-17 13:05:59 GMT 42.468861 20.432846 37,000 133 440 -64
2019-01-17 13:05:55 GMT 42.474838 20.424271 37,025 133 440 -64
2019-01-17 13:05:49 GMT 42.488926 20.404165 37,025 133 440 0
2019-01-17 13:05:45 GMT 42.488926 20.404165 37,025 133 440 0
2019-01-17 13:05:37 GMT 42.500015 20.388315 37,025 133 440 64
2019-01-17 13:05:33 GMT 42.505314 20.380789 37,025 133 440 64
2019-01-17 13:05:28 GMT 42.512192 20.370899 37,000 133 440 128
2019-01-17 13:05:24 GMT 42.517834 20.362904 37,000 133 440 0
2019-01-17 13:05:19 GMT 42.526428 20.350550 37,000 133 440 0
2019-01-17 13:05:14 GMT 42.532562 20.341810 37,000 133 441 0
2019-01-17 13:05:06 GMT 42.543274 20.326517 37,000 133 440 0
2019-01-17 13:05:03 GMT 42.547302 20.320650 37,000 133 440 0
2019-01-17 13:04:56 GMT 42.561264 20.300674 37,000 133 440 0
2019-01-17 13:04:53 GMT 42.561264 20.300674 37,000 133 440 0
2019-01-17 13:04:46 GMT 42.571747 20.285631 37,000 133 440 0
2019-01-17 13:04:42 GMT 42.576920 20.278202 37,000 133 440 0
2019-01-17 13:04:39 GMT 42.580582 20.272898 37,000 133 440 0
2019-01-17 13:04:36 GMT 42.584839 20.266779 37,000 133 440 64
2019-01-17 13:04:33 GMT 42.590149 20.259165 37,000 133 440 64
2019-01-17 13:04:26 GMT 42.599991 20.244993 37,000 133 440 0
2019-01-17 13:04:21 GMT 42.606079 20.236256 37,000 133 440 0
2019-01-17 13:04:15 GMT 42.614639 20.223957 37,000 133 441 0
2019-01-17 13:04:12 GMT 42.619598 20.216824 37,000 133 441 0
2019-01-17 13:04:05 GMT 42.628815 20.203602 37,000 133 440 -64
2019-01-17 13:04:01 GMT 42.634552 20.195368 37,000 133 440 0
2019-01-17 13:03:50 GMT 42.649578 20.173773 37,000 133 440 0
2019-01-17 13:03:43 GMT 42.659912 20.158913 37,000 133 440 0
2019-01-17 13:03:39 GMT 42.665451 20.150923 37,000 133 440 0
2019-01-17 13:03:34 GMT 42.672455 20.140812 37,000 133 440 0
2019-01-17 13:03:29 GMT 42.678627 20.131870 37,000 133 440 0
2019-01-17 13:03:23 GMT 42.687332 20.119337 37,000 133 440 0
2019-01-17 13:03:19 GMT 42.692730 20.111559 37,000 133 440 64
2019-01-17 13:03:13 GMT 42.701439 20.098976 37,000 133 440 0
2019-01-17 13:03:06 GMT 42.710514 20.085882 37,000 133 440 0
2019-01-17 13:03:02 GMT 42.716812 20.076765 37,000 133 440 0
2019-01-17 13:02:58 GMT 42.722443 20.068588 37,000 133 440 0
2019-01-17 13:02:52 GMT 42.730484 20.056948 37,000 133 440 0
2019-01-17 13:02:48 GMT 42.736771 20.047865 37,000 133 440 0
2019-01-17 13:02:41 GMT 42.745243 20.035549 37,000 133 440 0
2019-01-17 13:02:37 GMT 42.750824 20.027514 37,000 132 440 0
2019-01-17 13:02:32 GMT 42.760044 20.014088 37,000 132 440 64
2019-01-17 13:02:26 GMT 42.766235 20.005081 37,000 133 440 64
2019-01-17 13:02:21 GMT 42.774242 19.993711 37,000 134 440 0
2019-01-17 13:02:16 GMT 42.780487 19.985191 37,000 135 439 0
2019-01-17 13:02:08 GMT 42.792892 19.969151 37,000 137 440 64
2019-01-17 13:02:00 GMT 42.804459 19.954941 37,000 138 440 -64
2019-01-17 13:01:56 GMT 42.811386 19.946701 37,000 138 440 0
2019-01-17 13:01:50 GMT 42.820450 19.935970 37,000 138 440 0
2019-01-17 13:01:45 GMT 42.827271 19.927858 37,000 138 440 0
2019-01-17 13:01:40 GMT 42.836975 19.916298 37,000 138 440 0
2019-01-17 13:01:34 GMT 42.844116 19.907866 37,000 138 440 0
2019-01-17 13:01:28 GMT 42.853989 19.896175 37,000 138 440 0
2019-01-17 13:01:24 GMT 42.859249 19.889896 37,000 138 440 0
2019-01-17 13:01:18 GMT 42.870281 19.876818 37,000 138 440 0
2019-01-17 13:01:14 GMT 42.874889 19.871325 37,000 138 440 0
2019-01-17 13:01:04 GMT 42.890396 19.852871 37,000 138 440 0
2019-01-17 13:00:54 GMT 42.906601 19.833580 37,000 138 441 -64
2019-01-17 13:00:47 GMT 42.917908 19.820103 37,000 138 441 0
2019-01-17 13:00:43 GMT 42.923260 19.813711 37,000 138 441 0
2019-01-17 13:00:35 GMT 42.935715 19.798832 37,000 138 441 0
2019-01-17 13:00:22 GMT 42.954308 19.776632 37,000 138 441 -64
2019-01-17 13:00:12 GMT 42.970596 19.757124 37,025 138 441 -64
2019-01-17 13:00:06 GMT 42.986115 19.738535 37,025 138 441 0
2019-01-17 13:00:02 GMT 42.986115 19.738535 37,025 138 441 0
2019-01-17 12:59:55 GMT 43.004166 19.716993 37,025 138 441 0
2019-01-17 12:59:50 GMT 43.004166 19.716993 37,025 138 441 -64
2019-01-17 12:59:45 GMT 43.012161 19.707430 37,025 138 442 0
2019-01-17 12:59:40 GMT 43.018642 19.699663 37,025 138 442 0
2019-01-17 12:59:34 GMT 43.028687 19.687628 37,025 138 442 0
2019-01-17 12:59:30 GMT 43.034611 19.680504 37,025 138 442 0
2019-01-17 12:59:23 GMT 43.045319 19.667620 37,025 138 442 0
2019-01-17 12:59:19 GMT 43.050812 19.661079 37,025 138 442 0
2019-01-17 12:59:13 GMT 43.060501 19.649494 37,025 138 442 64
2019-01-17 12:59:10 GMT 43.070316 19.637735 37,025 138 442 0
2019-01-17 12:59:02 GMT 43.077019 19.629690 37,000 138 443 64
2019-01-17 12:58:58 GMT 43.084351 19.620878 37,000 138 443 0
2019-01-17 12:58:52 GMT 43.092709 19.610857 37,000 138 443 0
2019-01-17 12:58:48 GMT 43.099552 19.602682 37,000 138 443 0
2019-01-17 12:58:41 GMT 43.109512 19.590715 37,000 138 443 64
2019-01-17 12:58:37 GMT 43.115520 19.583458 37,000 138 443 64
2019-01-17 12:58:30 GMT 43.126457 19.570312 37,000 138 443 -64
2019-01-17 12:58:27 GMT 43.131088 19.564734 37,000 138 442 -64
2019-01-17 12:58:20 GMT 43.142212 19.551321 37,000 138 442 0
2019-01-17 12:58:17 GMT 43.146709 19.545919 37,000 138 442 0
2019-01-17 12:58:10 GMT 43.157227 19.533180 37,000 138 442 64
2019-01-17 12:58:07 GMT 43.162857 19.526474 37,000 138 442 0
2019-01-17 12:58:00 GMT 43.173660 19.513378 37,000 138 442 64
2019-01-17 12:57:56 GMT 43.179520 19.506353 37,000 138 442 64
2019-01-17 12:57:48 GMT 43.192005 19.491249 37,000 138 442 64
2019-01-17 12:57:45 GMT 43.195816 19.486679 37,000 138 442 64
2019-01-17 12:57:39 GMT 43.205273 19.475294 36,975 138 442 64
2019-01-17 12:57:35 GMT 43.212021 19.467184 36,975 138 442 64
2019-01-17 12:57:27 GMT 43.224125 19.452536 36,975 138 442 -64
2019-01-17 12:57:24 GMT 43.228500 19.447306 36,975 138 442 -64
2019-01-17 12:57:16 GMT 43.240265 19.433090 37,000 138 442 0
2019-01-17 12:57:13 GMT 43.245445 19.426836 37,000 138 442 0
2019-01-17 12:57:09 GMT 43.252258 19.418591 37,000 138 442 0
2019-01-17 12:57:02 GMT 43.261738 19.407087 37,000 138 442 0
2019-01-17 12:56:56 GMT 43.271439 19.395340 37,000 138 441 0
2019-01-17 12:56:52 GMT 43.276382 19.389400 37,000 138 442 0
2019-01-17 12:56:45 GMT 43.287903 19.375437 37,000 138 442 -64
2019-01-17 12:56:41 GMT 43.294094 19.367981 37,000 138 442 -64
2019-01-17 12:56:35 GMT 43.303310 19.356733 37,000 138 441 -64
2019-01-17 12:56:25 GMT 43.319138 19.337507 37,025 138 442 -64
2019-01-17 12:56:21 GMT 43.324772 19.330641 37,025 138 441 -64
2019-01-17 12:56:14 GMT 43.335297 19.317924 37,025 138 441 0
2019-01-17 12:56:10 GMT 43.341717 19.310041 37,025 138 441 0
2019-01-17 12:56:04 GMT 43.350796 19.298988 37,000 138 441 64
2019-01-17 12:56:00 GMT 43.356148 19.292515 37,025 138 441 64
2019-01-17 12:55:53 GMT 43.366760 19.279568 37,000 138 442 0
2019-01-17 12:55:47 GMT 43.375793 19.268581 37,000 138 442 -64
2019-01-17 12:55:43 GMT 43.382126 19.260885 37,025 138 442 0
2019-01-17 12:55:38 GMT 43.389713 19.251644 37,025 138 442 0
2019-01-17 12:55:33 GMT 43.398376 19.241085 37,025 138 442 0
2019-01-17 12:55:29 GMT 43.404514 19.233595 37,025 138 442 0
2019-01-17 12:55:22 GMT 43.414307 19.221731 37,025 138 442 0
2019-01-17 12:55:18 GMT 43.420437 19.214172 37,000 138 442 0
2019-01-17 12:55:12 GMT 43.430191 19.202312 37,000 138 443 0
2019-01-17 12:55:07 GMT 43.437752 19.193115 37,000 138 442 64
2019-01-17 12:55:02 GMT 43.445621 19.183502 37,000 138 442 64
2019-01-17 12:54:58 GMT 43.452137 19.175524 37,000 138 442 64
2019-01-17 12:54:51 GMT 43.461823 19.163689 37,000 138 442 64
2019-01-17 12:54:47 GMT 43.468552 19.155493 37,000 138 443 0
2019-01-17 12:54:41 GMT 43.477249 19.144890 37,000 138 443 64
2019-01-17 12:54:36 GMT 43.485703 19.134521 37,000 138 443 -64
2019-01-17 12:54:30 GMT 43.494141 19.124195 37,000 138 443 -64
2019-01-17 12:54:26 GMT 43.500870 19.115955 37,000 138 443 0
2019-01-17 12:54:20 GMT 43.509167 19.105812 37,000 138 442 0
2019-01-17 12:54:15 GMT 43.517635 19.095415 37,000 138 441 0
2019-01-17 12:54:10 GMT 43.524582 19.086828 37,000 138 442 64
2019-01-17 12:54:04 GMT 43.533966 19.075333 37,000 138 441 0
2019-01-17 12:53:59 GMT 43.540833 19.066900 37,000 138 442 -64
2019-01-17 12:53:53 GMT 43.549942 19.055786 37,000 138 441 0
2019-01-17 12:53:49 GMT 43.556973 19.047089 37,000 138 441 64
2019-01-17 12:53:43 GMT 43.565212 19.037018 37,000 138 442 64
2019-01-17 12:53:39 GMT 43.572556 19.028002 37,000 138 442 0
2019-01-17 12:53:33 GMT 43.581413 19.017138 36,975 138 442 64
2019-01-17 12:53:28 GMT 43.588303 19.008648 36,975 138 442 64
2019-01-17 12:53:22 GMT 43.597504 18.997341 36,975 138 442 0
2019-01-17 12:53:18 GMT 43.604141 18.989166 36,975 138 442 64
2019-01-17 12:53:11 GMT 43.614792 18.976070 36,975 138 442 0
2019-01-17 12:53:08 GMT 43.619865 18.969791 36,975 138 441 64
2019-01-17 12:52:58 GMT 43.635277 18.950893 36,975 138 441 -64
2019-01-17 12:52:51 GMT 43.645702 18.938141 36,975 138 441 0
2019-01-17 12:52:47 GMT 43.651703 18.930721 36,975 138 441 0
2019-01-17 12:52:44 GMT 43.655247 18.926371 36,975 138 441 0
2019-01-17 12:52:40 GMT 43.661949 18.918131 36,975 138 441 0
2019-01-17 12:52:37 GMT 43.666718 18.912197 36,975 138 441 0
2019-01-17 12:52:29 GMT 43.678253 18.898018 36,975 138 441 0
2019-01-17 12:52:26 GMT 43.682617 18.892626 36,975 138 441 -64
2019-01-17 12:52:19 GMT 43.694321 18.878090 36,975 137 441 0
2019-01-17 12:52:16 GMT 43.698631 18.872746 36,975 137 441 -64
2019-01-17 12:52:13 GMT 43.702423 18.867996 37,000 137 441 -192
2019-01-17 12:52:08 GMT 43.709930 18.858671 37,000 137 441 -128
2019-01-17 12:52:04 GMT 43.717812 18.848942 37,025 138 441 -128
2019-01-17 12:51:56 GMT 43.729450 18.834425 37,025 138 440 0
2019-01-17 12:51:52 GMT 43.734756 18.827885 37,025 138 441 128
2019-01-17 12:51:45 GMT 43.755146 18.802774 37,000 138 441 0
2019-01-17 12:51:35 GMT 43.761108 18.795437 37,000 137 441 64
2019-01-17 12:51:30 GMT 43.768555 18.786098 37,000 137 441 64
2019-01-17 12:51:24 GMT 43.777164 18.775309 37,000 138 441 0
2019-01-17 12:51:13 GMT 43.793411 18.755165 37,000 137 441 64
2019-01-17 12:51:03 GMT 43.808945 18.735842 37,000 138 442 -64
2019-01-17 12:50:53 GMT 43.825012 18.716040 37,000 138 441 64
2019-01-17 12:50:42 GMT 43.840755 18.696571 37,000 138 442 64
2019-01-17 12:50:32 GMT 43.856094 18.677588 37,000 137 443 0
2019-01-17 12:50:28 GMT 43.862404 18.669695 37,000 137 443 0
2019-01-17 12:50:22 GMT 43.871574 18.658186 37,000 137 443 0
2019-01-17 12:50:11 GMT 43.887680 18.638115 37,000 138 443 128
2019-01-17 12:50:01 GMT 43.903473 18.618505 37,000 137 443 -64
2019-01-17 12:49:51 GMT 43.918777 18.599396 37,025 137 441 -64
2019-01-17 12:49:44 GMT 43.929672 18.585794 37,025 137 440 -64
2019-01-17 12:49:41 GMT 43.934189 18.580105 37,025 137 439 128
2019-01-17 12:49:37 GMT 43.941605 18.570854 37,000 137 438 128
2019-01-17 12:49:30 GMT 43.950027 18.560316 37,000 137 438 64
2019-01-17 12:49:20 GMT 43.965820 18.540516 37,000 137 438 -128
2019-01-17 12:49:15 GMT 43.972595 18.532084 37,000 137 438 128
2019-01-17 12:49:09 GMT 43.981750 18.520651 37,000 137 436 -64
2019-01-17 12:49:05 GMT 43.988617 18.512028 37,000 137 434 64
2019-01-17 12:48:57 GMT 44.000198 18.497526 37,000 137 432 -128
2019-01-17 12:48:48 GMT 44.013371 18.481031 37,025 137 430 -64
2019-01-17 12:48:44 GMT 44.019192 18.473707 37,025 137 429 320
2019-01-17 12:48:37 GMT 44.029480 18.460758 37,000 137 429 -64
2019-01-17 12:48:34 GMT 44.034439 18.454540 37,000 137 429 0
2019-01-17 12:48:28 GMT 44.043072 18.443691 37,000 137 429 0
2019-01-17 12:48:24 GMT 44.050194 18.434732 37,000 137 429 -64
2019-01-17 12:48:18 GMT 44.057781 18.425184 37,000 137 429 -64
2019-01-17 12:48:15 GMT 44.061508 18.420542 37,000 137 429 64
2019-01-17 12:48:05 GMT 44.076218 18.401970 37,000 137 428 0
2019-01-17 12:48:00 GMT 44.084877 18.391048 37,000 137 428 0
2019-01-17 12:47:55 GMT 44.091347 18.382938 37,000 137 429 0
2019-01-17 12:47:49 GMT 44.099728 18.372410 37,000 137 429 0
2019-01-17 12:47:44 GMT 44.107681 18.362370 37,000 137 429 0
2019-01-17 12:47:41 GMT 44.110851 18.358351 37,000 137 429 0
2019-01-17 12:47:36 GMT 44.118988 18.348125 37,000 137 429 64
2019-01-17 12:47:33 GMT 44.123428 18.342569 37,000 137 428 128
2019-01-17 12:47:30 GMT 44.127731 18.337139 37,000 137 428 64
2019-01-17 12:47:24 GMT 44.138039 18.324148 37,000 137 428 0
2019-01-17 12:47:20 GMT 44.142380 18.318617 37,000 137 428 0
2019-01-17 12:47:12 GMT 44.157963 18.298971 37,000 137 429 0
2019-01-17 12:47:05 GMT 44.164627 18.290577 37,000 137 428 0
2019-01-17 12:47:02 GMT 44.168930 18.285082 37,000 137 429 64
2019-01-17 12:46:59 GMT 44.172813 18.280205 37,000 137 429 0
2019-01-17 12:46:54 GMT 44.179871 18.271286 37,000 137 429 0
2019-01-17 12:46:50 GMT 44.187943 18.261108 37,000 137 429 64
2019-01-17 12:46:44 GMT 44.195065 18.252176 37,000 137 429 64
2019-01-17 12:46:41 GMT 44.200371 18.245478 36,975 137 429 64
2019-01-17 12:46:37 GMT 44.205643 18.238874 36,975 137 429 64
2019-01-17 12:46:34 GMT 44.210613 18.232615 36,975 137 429 0
2019-01-17 12:46:29 GMT 44.218506 18.222656 36,975 137 429 0
2019-01-17 12:46:23 GMT 44.225742 18.213524 37,000 137 429 0
2019-01-17 12:46:18 GMT 44.234215 18.202738 36,975 137 429 192
2019-01-17 12:46:13 GMT 44.241058 18.194029 36,975 137 429 128
2019-01-17 12:46:08 GMT 44.249176 18.183746 36,950 137 430 0
2019-01-17 12:46:02 GMT 44.256409 18.174526 36,975 137 431 -192
2019-01-17 12:45:57 GMT 44.264523 18.164219 37,000 137 430 -192
2019-01-17 12:45:52 GMT 44.271782 18.154907 37,000 137 429 64
2019-01-17 12:45:49 GMT 44.276138 18.149349 37,000 137 428 64
2019-01-17 12:45:45 GMT 44.281326 18.142782 37,000 137 429 128
2019-01-17 12:45:42 GMT 44.286728 18.135881 36,975 137 429 128
2019-01-17 12:45:36 GMT 44.295990 18.124092 36,975 137 429 64
2019-01-17 12:45:31 GMT 44.302231 18.116186 36,950 137 430 64
2019-01-17 12:45:26 GMT 44.310284 18.105938 36,975 137 430 -64
2019-01-17 12:45:21 GMT 44.317593 18.096693 36,975 137 430 -128
2019-01-17 12:45:16 GMT 44.326447 18.085459 36,975 137 430 -64
2019-01-17 12:45:10 GMT 44.332718 18.077480 37,000 137 430 64
2019-01-17 12:45:05 GMT 44.348465 18.057468 36,975 137 432 -256
2019-01-17 12:45:00 GMT 44.348465 18.057468 36,975 137 430 128
2019-01-17 12:44:54 GMT 44.356602 18.047121 36,950 137 431 64
2019-01-17 12:44:49 GMT 44.364212 18.037458 36,950 137 431 128
2019-01-17 12:44:46 GMT 44.369019 18.031376 36,950 137 432 -128
2019-01-17 12:44:43 GMT 44.372772 18.026537 36,950 137 432 -256
2019-01-17 12:44:39 GMT 44.378716 18.018986 36,975 137 432 -256
2019-01-17 12:44:33 GMT 44.387234 18.008066 37,000 137 432 -256
2019-01-17 12:44:29 GMT 44.393921 17.999397 37,000 137 431 -64
2019-01-17 12:44:23 GMT 44.402782 17.987902 37,000 137 430 192
2019-01-17 12:44:18 GMT 44.409019 17.979931 36,975 137 430 192
2019-01-17 12:44:13 GMT 44.417538 17.969078 36,975 137 430 128
2019-01-17 12:44:08 GMT 44.424774 17.959900 36,975 137 431 0
2019-01-17 12:44:01 GMT 44.434715 17.947239 37,000 137 432 -192
2019-01-17 12:43:57 GMT 44.439789 17.940674 36,975 137 432 -192
2019-01-17 12:43:54 GMT 44.447113 17.931389 37,000 137 432 -128
2019-01-17 12:43:51 GMT 44.448681 17.929354 37,000 137 432 -64
2019-01-17 12:43:47 GMT 44.454639 17.921717 37,025 137 432 -64
2019-01-17 12:43:42 GMT 44.463905 17.909859 37,025 137 432 0
2019-01-17 12:43:37 GMT 44.469818 17.902355 37,025 137 432 0
2019-01-17 12:43:31 GMT 44.478836 17.890778 37,025 137 433 -128
2019-01-17 12:43:26 GMT 44.485645 17.882126 37,025 137 433 -64
2019-01-17 12:43:20 GMT 44.494629 17.870636 37,025 137 434 0
2019-01-17 12:43:16 GMT 44.500443 17.863115 37,025 137 435 128
2019-01-17 12:43:10 GMT 44.510223 17.850506 37,025 137 435 64
2019-01-17 12:43:05 GMT 44.516975 17.841797 37,025 137 435 -64
2019-01-17 12:43:00 GMT 44.525345 17.831007 37,025 137 435 0
2019-01-17 12:42:56 GMT 44.530941 17.823845 37,025 137 435 0
2019-01-17 12:42:49 GMT 44.540588 17.811388 37,025 137 434 0
2019-01-17 12:42:43 GMT 44.549561 17.799879 37,025 137 433 -64
2019-01-17 12:42:39 GMT 44.555286 17.792559 37,025 137 433 128
2019-01-17 12:42:35 GMT 44.561852 17.784119 37,025 137 433 0
2019-01-17 12:42:28 GMT 44.571205 17.772127 37,025 137 433 0
2019-01-17 12:42:24 GMT 44.577988 17.763323 37,025 137 433 -64
2019-01-17 12:42:17 GMT 44.588341 17.749954 37,025 137 433 -64
2019-01-17 12:42:14 GMT 44.591904 17.745340 37,025 137 433 0
2019-01-17 12:42:09 GMT 44.600395 17.734344 37,025 137 433 0
2019-01-17 12:42:03 GMT 44.608215 17.724297 37,025 137 433 128
2019-01-17 12:41:58 GMT 44.616486 17.713623 37,025 137 433 0
2019-01-17 12:41:54 GMT 44.622555 17.705875 37,025 137 433 128
2019-01-17 12:41:48 GMT 44.638103 17.685844 37,025 137 434 -128
2019-01-17 12:41:43 GMT 44.638103 17.685844 37,025 137 434 -64
2019-01-17 12:41:39 GMT 44.645325 17.676544 37,025 137 434 -64
2019-01-17 12:41:36 GMT 44.649693 17.670906 37,025 137 434 0
2019-01-17 12:41:33 GMT 44.662449 17.654427 37,025 137 433 64
2019-01-17 12:41:27 GMT 44.662449 17.654427 37,025 137 433 0
2019-01-17 12:41:23 GMT 44.668362 17.646856 37,025 137 433 64
2019-01-17 12:41:15 GMT 44.680206 17.631554 37,000 137 433 0
2019-01-17 12:41:12 GMT 44.683167 17.627697 37,000 137 433 0
2019-01-17 12:41:05 GMT 44.693455 17.614367 37,000 137 432 64
2019-01-17 12:41:02 GMT 44.698700 17.607487 37,000 137 432 128
2019-01-17 12:40:55 GMT 44.709229 17.593821 37,000 137 433 0
2019-01-17 12:40:51 GMT 44.714451 17.587103 37,000 137 433 0
2019-01-17 12:40:44 GMT 44.726551 17.571360 37,000 137 433 -64
2019-01-17 12:40:41 GMT 44.729530 17.567474 37,000 137 433 -64
2019-01-17 12:40:33 GMT 44.741364 17.552097 37,000 137 432 -64
2019-01-17 12:40:30 GMT 44.744705 17.547783 37,000 137 431 -128
2019-01-17 12:40:24 GMT 44.753506 17.536390 37,025 137 431 -64
2019-01-17 12:40:21 GMT 44.759216 17.529013 37,025 137 431 0
2019-01-17 12:40:14 GMT 44.769745 17.515347 37,000 137 430 64
2019-01-17 12:40:10 GMT 44.774643 17.508938 37,000 137 430 0
2019-01-17 12:40:03 GMT 44.785393 17.494925 37,000 137 430 -64
2019-01-17 12:40:00 GMT 44.789722 17.489365 37,000 137 430 -64
2019-01-17 12:39:52 GMT 44.802612 17.472578 37,025 137 430 0
2019-01-17 12:39:49 GMT 44.804901 17.469570 37,025 137 430 -64
2019-01-17 12:39:42 GMT 44.817421 17.453257 37,025 137 429 -64
2019-01-17 12:39:39 GMT 44.820168 17.449638 37,025 137 429 -64
2019-01-17 12:39:32 GMT 44.830597 17.436108 37,025 137 428 64
2019-01-17 12:39:29 GMT 44.834702 17.430790 37,025 137 428 128
2019-01-17 12:39:22 GMT 44.845539 17.416679 37,000 137 428 192
2019-01-17 12:39:18 GMT 44.850861 17.409668 37,000 137 428 64
2019-01-17 12:39:10 GMT 44.864227 17.392208 37,000 137 428 -64
2019-01-17 12:39:01 GMT 44.875660 17.377222 37,000 137 428 0
2019-01-17 12:38:57 GMT 44.880825 17.370523 37,025 137 430 64
2019-01-17 12:38:50 GMT 44.893070 17.354513 37,000 137 426 -128
2019-01-17 12:38:46 GMT 44.897259 17.349087 37,025 137 425 0
2019-01-17 12:38:40 GMT 44.905518 17.338322 37,000 137 425 64
2019-01-17 12:38:37 GMT 44.910461 17.331783 37,000 137 424 64
2019-01-17 12:38:34 GMT 44.914902 17.325975 37,000 136 428 0
2019-01-17 12:38:30 GMT 44.925156 17.312557 37,000 136 426 0
2019-01-17 12:38:20 GMT 44.939854 17.293283 37,000 137 425 -64
2019-01-17 12:38:17 GMT 44.939854 17.293283 37,000 137 425 -64
2019-01-17 12:38:09 GMT 44.950607 17.279148 37,000 137 425 -64
2019-01-17 12:38:06 GMT 44.955078 17.273321 37,000 136 426 0
2019-01-17 12:37:59 GMT 44.965038 17.260258 37,000 136 428 -64
2019-01-17 12:37:56 GMT 44.969193 17.254747 37,000 136 429 -64
2019-01-17 12:37:52 GMT 44.975418 17.246572 37,000 137 430 0
2019-01-17 12:37:46 GMT 44.984638 17.234533 37,000 137 430 64
2019-01-17 12:37:41 GMT 44.990112 17.227413 37,000 137 430 0
2019-01-17 12:37:37 GMT 45.002563 17.211063 37,025 137 433 -192
2019-01-17 12:37:30 GMT 45.006912 17.205376 37,025 136 433 -192
2019-01-17 12:37:26 GMT 45.012177 17.198442 37,050 136 433 -64
2019-01-17 12:37:23 GMT 45.017086 17.191996 37,050 136 434 64
2019-01-17 12:37:20 GMT 45.021553 17.186102 37,050 136 445 -320
2019-01-17 12:37:16 GMT 45.028023 17.177593 37,000 136 437 320
2019-01-17 12:37:13 GMT 45.034122 17.169554 36,975 136 444 64
2019-01-17 12:37:09 GMT 45.037148 17.165468 36,975 136 440 64
2019-01-17 12:37:06 GMT 45.042892 17.157898 36,950 136 443 -192
2019-01-17 12:37:03 GMT 45.046921 17.152666 36,975 136 446 0
2019-01-17 12:36:58 GMT 45.053860 17.143496 37,050 136 445 0
2019-01-17 12:36:54 GMT 45.062027 17.132721 37,050 136 445 0
2019-01-17 12:36:46 GMT 45.072807 17.118507 37,050 136 445 0
2019-01-17 12:36:42 GMT 45.078781 17.110552 37,050 136 445 0
2019-01-17 12:36:37 GMT 45.085190 17.102051 37,050 136 445 128
2019-01-17 12:36:34 GMT 45.094593 17.089567 37,025 136 445 128
2019-01-17 12:36:27 GMT 45.101166 17.080929 37,025 136 445 0
2019-01-17 12:36:24 GMT 45.106606 17.073692 37,025 136 445 0
2019-01-17 12:36:12 GMT 45.125336 17.049017 37,050 136 445 0
2019-01-17 12:36:01 GMT 45.140121 17.029463 37,025 136 445 192
2019-01-17 12:35:51 GMT 45.156509 17.007751 37,000 136 445 64
2019-01-17 12:35:46 GMT 45.163147 16.998922 37,000 136 445 -64
2019-01-17 12:35:41 GMT 45.170471 16.989244 37,000 136 446 -64
2019-01-17 12:35:38 GMT 45.184860 16.970194 37,000 136 445 -64
2019-01-17 12:35:32 GMT 45.184860 16.970194 37,025 136 445 0
2019-01-17 12:35:28 GMT 45.189331 16.964264 37,025 136 444 64
2019-01-17 12:35:22 GMT 45.199757 16.950432 37,000 136 444 64
2019-01-17 12:35:19 GMT 45.203667 16.945272 37,000 136 443 64
2019-01-17 12:35:16 GMT 45.207344 16.940315 37,000 136 443 64
2019-01-17 12:35:12 GMT 45.213860 16.931606 37,000 136 443 64
2019-01-17 12:35:08 GMT 45.218983 16.924841 37,000 136 443 64
2019-01-17 12:35:04 GMT 45.225918 16.915596 37,000 136 442 0
2019-01-17 12:34:58 GMT 45.235611 16.902727 36,975 136 442 64
2019-01-17 12:34:50 GMT 45.250168 16.883371 36,975 136 442 -64
2019-01-17 12:34:43 GMT 45.258270 16.872587 37,000 136 442 64
2019-01-17 12:34:40 GMT 45.262089 16.867563 37,000 136 442 0
2019-01-17 12:34:36 GMT 45.267151 16.860744 37,000 136 442 -64
2019-01-17 12:34:29 GMT 45.278801 16.845190 37,000 136 442 64
2019-01-17 12:34:26 GMT 45.281876 16.841036 37,000 136 442 64
2019-01-17 12:34:18 GMT 45.294117 16.824759 36,975 136 442 0
2019-01-17 12:34:15 GMT 45.297867 16.819740 36,975 136 441 0
2019-01-17 12:34:09 GMT 45.306828 16.807810 36,975 136 440 128
2019-01-17 12:34:06 GMT 45.313156 16.799337 36,975 136 441 128
2019-01-17 12:33:57 GMT 45.325634 16.782621 36,950 136 441 0
2019-01-17 12:33:54 GMT 45.329357 16.777664 36,950 136 441 0
2019-01-17 12:33:50 GMT 45.336758 16.767750 36,950 136 441 -64
2019-01-17 12:33:46 GMT 45.341263 16.761736 36,975 136 441 -64
2019-01-17 12:33:43 GMT 45.345139 16.756561 36,975 136 441 -64
2019-01-17 12:33:36 GMT 45.356403 16.741489 37,000 136 440 -128
2019-01-17 12:33:33 GMT 45.360874 16.735527 37,000 136 440 -128
2019-01-17 12:33:28 GMT 45.368832 16.724876 37,000 136 440 0
2019-01-17 12:33:23 GMT 45.377308 16.713554 37,000 136 440 0
2019-01-17 12:33:17 GMT 45.383915 16.704645 37,000 136 441 -64
2019-01-17 12:33:14 GMT 45.388290 16.698750 37,000 136 442 -128
2019-01-17 12:33:11 GMT 45.393585 16.691698 37,000 136 440 0
2019-01-17 12:33:05 GMT 45.403061 16.679012 37,000 136 441 128
2019-01-17 12:33:02 GMT 45.413452 16.665083 36,975 136 441 128
2019-01-17 12:32:57 GMT 45.413452 16.665083 36,975 136 441 128
2019-01-17 12:32:54 GMT 45.418690 16.658020 37,000 136 442 -64
2019-01-17 12:32:51 GMT 45.423763 16.651188 37,000 136 442 -128
2019-01-17 12:32:48 GMT 45.428467 16.644957 37,000 136 442 -192
2019-01-17 12:32:43 GMT 45.436844 16.633629 37,025 136 442 -128
2019-01-17 12:32:40 GMT 45.439777 16.629683 37,025 136 441 -64
2019-01-17 12:32:36 GMT 45.444626 16.623098 37,025 136 440 64
2019-01-17 12:32:33 GMT 45.450027 16.615841 37,000 136 440 64
2019-01-17 12:32:29 GMT 45.455887 16.607992 37,000 136 440 64
2019-01-17 12:32:24 GMT 45.463753 16.597395 37,000 136 440 64
2019-01-17 12:32:21 GMT 45.467617 16.592236 37,000 136 440 64
2019-01-17 12:32:16 GMT 45.475479 16.581638 37,000 136 441 0
2019-01-17 12:32:13 GMT 45.479691 16.575951 37,000 136 441 0
2019-01-17 12:32:10 GMT 45.483490 16.570913 37,000 136 441 0
2019-01-17 12:32:07 GMT 45.487167 16.565908 37,000 136 441 0
2019-01-17 12:32:04 GMT 45.493965 16.556730 37,000 136 441 -64
2019-01-17 12:32:00 GMT 45.498154 16.551104 37,000 136 441 -64
2019-01-17 12:31:55 GMT 45.507065 16.539066 37,000 136 440 0
2019-01-17 12:31:52 GMT 45.510773 16.534098 37,025 136 440 0
2019-01-17 12:31:42 GMT 45.524734 16.515263 37,000 136 440 64
2019-01-17 12:31:39 GMT 45.530415 16.507561 37,000 136 441 64
2019-01-17 12:31:34 GMT 45.537094 16.498587 37,000 136 440 128
2019-01-17 12:31:31 GMT 45.542175 16.491655 37,000 136 440 128
2019-01-17 12:31:28 GMT 45.545563 16.487078 37,000 136 440 128
2019-01-17 12:31:23 GMT 45.554157 16.475441 36,975 136 442 0
2019-01-17 12:31:17 GMT 45.563469 16.462875 36,975 136 442 0
2019-01-17 12:31:11 GMT 45.570786 16.453032 36,975 136 442 0
2019-01-17 12:31:07 GMT 45.577480 16.444061 36,975 136 442 0
2019-01-17 12:31:02 GMT 45.589211 16.428131 36,975 136 441 0
2019-01-17 12:30:59 GMT 45.589211 16.428131 36,975 136 442 64
2019-01-17 12:30:56 GMT 45.592888 16.423187 36,975 136 442 64
2019-01-17 12:30:52 GMT 45.599453 16.414330 36,975 136 442 64
2019-01-17 12:30:49 GMT 45.604019 16.408148 36,975 136 442 64
2019-01-17 12:30:46 GMT 45.608624 16.401901 36,950 136 441 128
2019-01-17 12:30:42 GMT 45.614491 16.394005 36,950 136 441 128
2019-01-17 12:30:37 GMT 45.622330 16.383429 36,950 136 442 -64
2019-01-17 12:30:31 GMT 45.631119 16.371437 36,950 136 442 -64
2019-01-17 12:30:27 GMT 45.636200 16.364538 36,950 136 442 -64
2019-01-17 12:30:23 GMT 45.643120 16.355141 36,950 136 441 -64
2019-01-17 12:30:17 GMT 45.650208 16.345379 36,975 136 441 -64
2019-01-17 12:30:13 GMT 45.655922 16.337631 36,975 136 441 -64
2019-01-17 12:30:10 GMT 45.660461 16.331446 36,975 136 440 -128
2019-01-17 12:30:06 GMT 45.666504 16.323206 36,975 136 440 -128
2019-01-17 12:30:03 GMT 45.670864 16.317307 37,000 136 439 -128
2019-01-17 12:29:59 GMT 45.679245 16.305908 37,000 136 440 -64
2019-01-17 12:29:56 GMT 45.681431 16.302956 37,000 136 440 -64
2019-01-17 12:29:53 GMT 45.688522 16.293327 37,000 136 439 0
2019-01-17 12:29:46 GMT 45.696716 16.282141 37,000 136 440 0
2019-01-17 12:29:42 GMT 45.702286 16.274529 37,000 136 439 -64
2019-01-17 12:29:39 GMT 45.706787 16.268408 37,025 136 441 -64
2019-01-17 12:29:34 GMT 45.716309 16.255411 37,025 136 441 -64
2019-01-17 12:29:30 GMT 45.721561 16.248299 37,025 136 442 0
2019-01-17 12:29:25 GMT 45.728077 16.239372 37,025 136 442 0
2019-01-17 12:29:22 GMT 45.733849 16.231476 37,025 136 444 0
2019-01-17 12:29:19 GMT 45.736645 16.227631 37,025 136 442 0
2019-01-17 12:29:13 GMT 45.746887 16.213676 37,025 136 444 0
2019-01-17 12:29:10 GMT 45.750793 16.208336 37,025 136 444 64
2019-01-17 12:29:06 GMT 45.763317 16.191238 37,025 136 444 64
2019-01-17 12:29:02 GMT 45.763317 16.191238 37,025 136 444 64
2019-01-17 12:28:57 GMT 45.775375 16.174690 37,025 136 444 64
2019-01-17 12:28:54 GMT 45.775375 16.174690 37,025 136 444 64
2019-01-17 12:28:51 GMT 45.779572 16.168926 37,025 136 444 64
2019-01-17 12:28:48 GMT 45.782455 16.164974 37,025 136 444 0
2019-01-17 12:28:43 GMT 45.789963 16.154726 37,025 136 444 64
2019-01-17 12:28:39 GMT 45.800583 16.140188 37,025 136 444 0
2019-01-17 12:28:32 GMT 45.805634 16.133286 37,025 136 444 64
2019-01-17 12:28:29 GMT 45.811218 16.125664 37,025 136 444 128
2019-01-17 12:28:26 GMT 45.819366 16.114471 37,025 136 444 128
2019-01-17 12:28:23 GMT 45.819366 16.114471 37,000 136 444 128
2019-01-17 12:28:20 GMT 45.823509 16.108772 37,000 136 445 0
2019-01-17 12:28:17 GMT 45.828213 16.102386 37,000 136 444 0
2019-01-17 12:28:14 GMT 45.832672 16.096245 37,000 136 444 128
2019-01-17 12:28:11 GMT 45.838638 16.088036 37,000 136 445 0
2019-01-17 12:28:08 GMT 45.842644 16.082611 37,000 136 444 -64
2019-01-17 12:28:04 GMT 45.848007 16.075275 37,000 136 445 -64
2019-01-17 12:28:00 GMT 45.854420 16.066475 37,000 136 445 -64
2019-01-17 12:27:57 GMT 45.857941 16.061609 37,000 136 445 0
2019-01-17 12:27:53 GMT 45.863159 16.054441 37,000 136 445 -64
2019-01-17 12:27:49 GMT 45.874485 16.038872 37,000 136 445 0
2019-01-17 12:27:46 GMT 45.874485 16.038872 36,000 135 446 0
2019-01-17 12:27:43 GMT 45.883934 16.025826 37,000 136 445 64
2019-01-17 12:27:40 GMT 45.889069 16.018736 37,000 136 444 64
2019-01-17 12:27:36 GMT 45.889069 16.018736 37,000 136 444 64
2019-01-17 12:27:30 GMT 45.898552 16.005707 37,000 136 445 0
2019-01-17 12:27:26 GMT 45.904415 15.997673 37,000 136 445 -64
2019-01-17 12:27:19 GMT 45.914799 15.983391 37,000 136 445 -64
2019-01-17 12:27:16 GMT 45.920712 15.975357 37,000 136 445 64
2019-01-17 12:27:09 GMT 45.929169 15.963738 37,000 136 445 128
2019-01-17 12:27:05 GMT 45.935795 15.954620 36,975 136 444 128
2019-01-17 12:26:58 GMT 45.945057 15.941849 36,975 136 445 0
2019-01-17 12:26:54 GMT 45.951645 15.932721 36,975 135 446 -64
2019-01-17 12:26:48 GMT 45.960651 15.920219 36,975 135 446 0
2019-01-17 12:26:45 GMT 45.965820 15.913147 36,975 135 446 0
2019-01-17 12:26:37 GMT 45.975998 15.898959 36,975 136 445 -128
2019-01-17 12:26:34 GMT 45.981228 15.891792 36,975 136 445 -128
2019-01-17 12:26:29 GMT 45.991562 15.877455 37,000 136 445 -128
2019-01-17 12:26:26 GMT 45.997971 15.868679 37,025 136 445 -192
2019-01-17 12:26:17 GMT 46.006878 15.856361 37,050 136 444 -128
2019-01-17 12:26:13 GMT 46.012482 15.848582 37,050 136 444 -64
2019-01-17 12:26:06 GMT 46.021729 15.835762 37,050 135 445 0
2019-01-17 12:26:03 GMT 46.027634 15.827614 37,050 135 445 0
2019-01-17 12:25:56 GMT 46.037556 15.813789 37,050 135 446 64
2019-01-17 12:25:53 GMT 46.055061 15.789482 37,025 135 448 64
2019-01-17 12:25:45 GMT 46.055061 15.789482 37,025 135 445 64
2019-01-17 12:25:41 GMT 46.058876 15.784195 37,025 135 447 0
2019-01-17 12:25:35 GMT 46.068146 15.771276 37,025 135 448 64
2019-01-17 12:25:32 GMT 46.073547 15.763773 37,025 135 448 64
2019-01-17 12:25:25 GMT 46.083664 15.749705 37,000 135 449 0
2019-01-17 12:25:20 GMT 46.091183 15.739151 36,975 135 449 192
2019-01-17 12:25:14 GMT 46.099472 15.727615 36,975 135 449 128
2019-01-17 12:25:10 GMT 46.105820 15.718756 37,000 135 449 192
2019-01-17 12:25:05 GMT 46.114368 15.706741 36,975 135 449 64
2019-01-17 12:25:00 GMT 46.121063 15.697453 36,975 135 449 64
2019-01-17 12:24:53 GMT 46.130241 15.684700 36,975 136 449 64
2019-01-17 12:24:50 GMT 46.136341 15.676254 36,975 135 449 0
2019-01-17 12:24:43 GMT 46.145836 15.662933 36,975 127 453 -192
2019-01-17 12:24:39 GMT 46.151871 15.654312 36,975 134 449 64
2019-01-17 12:24:32 GMT 46.162445 15.638234 36,950 127 453 -192
2019-01-17 12:24:27 GMT 46.175678 15.616997 36,950 131 451 64
2019-01-17 12:24:23 GMT 46.175678 15.616997 36,950 127 453 -192
2019-01-17 12:24:19 GMT 46.181122 15.607754 36,975 129 452 -192
2019-01-17 12:24:15 GMT 46.185452 15.600174 36,975 127 453 -192
2019-01-17 12:24:12 GMT 46.189362 15.593485 37,000 127 453 -192
2019-01-17 12:24:08 GMT 46.194672 15.583420 37,025 127 453 -192
2019-01-17 12:24:01 GMT 46.203415 15.566823 37,025 127 453 -64
2019-01-17 12:23:56 GMT 46.209091 15.556038 37,025 127 453 0
2019-01-17 12:23:50 GMT 46.217064 15.540779 37,000 127 453 0
2019-01-17 12:23:46 GMT 46.222275 15.530783 37,000 127 453 0
2019-01-17 12:23:39 GMT 46.231819 15.512558 37,000 126 454 0
2019-01-17 12:23:36 GMT 46.235687 15.505192 37,000 126 454 0
2019-01-17 12:23:33 GMT 46.238850 15.499100 37,025 126 454 0
2019-01-17 12:23:28 GMT 46.245598 15.486191 37,025 126 455 0
2019-01-17 12:23:25 GMT 46.248112 15.481247 37,025 126 455 0
2019-01-17 12:23:17 GMT 46.264481 15.449859 37,000 127 454 192
2019-01-17 12:23:10 GMT 46.268642 15.441902 36,975 126 455 64
2019-01-17 12:23:04 GMT 46.276932 15.426077 36,975 126 456 0
2019-01-17 12:22:58 GMT 46.282471 15.415426 37,000 126 456 -64
2019-01-17 12:22:53 GMT 46.290482 15.399951 37,000 126 456 -128
2019-01-17 12:22:46 GMT 46.298946 15.383743 37,025 126 456 -128
2019-01-17 12:22:40 GMT 46.308884 15.364581 37,000 126 459 0
2019-01-17 12:22:37 GMT 46.308884 15.364581 37,025 126 456 -128
2019-01-17 12:22:33 GMT 46.322250 15.338924 37,025 126 456 64
2019-01-17 12:22:27 GMT 46.322250 15.338924 37,050 126 455 0
2019-01-17 12:22:24 GMT 46.325993 15.331696 37,025 126 456 0
2019-01-17 12:22:19 GMT 46.332233 15.319611 37,025 126 457 0
2019-01-17 12:22:15 GMT 46.338821 15.307037 37,025 126 456 64
2019-01-17 12:22:12 GMT 46.340698 15.303352 37,025 126 457 0
2019-01-17 12:22:06 GMT 46.348572 15.288279 37,025 126 458 -64
2019-01-17 12:22:03 GMT 46.352371 15.280911 37,000 126 458 64
2019-01-17 12:22:00 GMT 46.356766 15.272438 37,025 126 458 128
2019-01-17 12:21:54 GMT 46.364960 15.256645 37,025 126 458 128
2019-01-17 12:21:50 GMT 46.369263 15.248220 37,025 126 458 192
2019-01-17 12:21:47 GMT 46.372639 15.241676 37,000 126 459 0
2019-01-17 12:21:43 GMT 46.378086 15.231102 37,000 126 458 192
2019-01-17 12:21:38 GMT 46.383957 15.219749 36,975 126 459 0
2019-01-17 12:21:35 GMT 46.387165 15.213524 36,975 126 459 64
2019-01-17 12:21:32 GMT 46.390961 15.206217 36,975 126 459 -64
2019-01-17 12:21:29 GMT 46.396637 15.195231 37,000 126 459 -64
2019-01-17 12:21:22 GMT 46.404297 15.180428 37,000 126 459 -64
2019-01-17 12:21:18 GMT 46.417469 15.155022 37,000 126 459 -64
2019-01-17 12:21:12 GMT 46.417469 15.155022 37,025 126 459 0
2019-01-17 12:21:05 GMT 46.425888 15.138691 37,025 126 459 64
2019-01-17 12:21:01 GMT 46.430691 15.129410 37,025 126 459 64
2019-01-17 12:20:58 GMT 46.435181 15.120604 37,000 126 459 64
2019-01-17 12:20:53 GMT 46.441399 15.108536 37,000 126 459 64
2019-01-17 12:20:49 GMT 46.447495 15.096689 37,000 126 460 -64
2019-01-17 12:20:45 GMT 46.453079 15.085836 37,000 126 460 0
2019-01-17 12:20:40 GMT 46.457565 15.077061 37,000 126 460 -64
2019-01-17 12:20:35 GMT 46.464111 15.064333 37,025 126 460 0
2019-01-17 12:20:31 GMT 46.470398 15.052025 37,025 126 460 64
2019-01-17 12:20:27 GMT 46.474121 15.044746 37,000 126 459 192
2019-01-17 12:20:24 GMT 46.478035 15.037125 37,000 126 460 192
2019-01-17 12:20:20 GMT 46.482925 15.027488 36,975 126 459 192
2019-01-17 12:20:17 GMT 46.487995 15.017624 36,975 126 458 128
2019-01-17 12:20:13 GMT 46.492325 15.009247 36,975 126 461 0
2019-01-17 12:20:10 GMT 46.496246 15.001563 36,975 126 460 -64
2019-01-17 12:20:05 GMT 46.501373 14.991582 36,975 126 460 -64
2019-01-17 12:19:59 GMT 46.511215 14.972557 37,000 126 460 -64
2019-01-17 12:19:55 GMT 46.515087 14.964958 37,025 126 459 -64
2019-01-17 12:19:51 GMT 46.519455 14.956546 37,000 126 459 192
2019-01-17 12:19:47 GMT 46.524445 14.946762 37,000 126 459 -64
2019-01-17 12:19:42 GMT 46.532036 14.931862 37,000 126 459 64
2019-01-17 12:19:38 GMT 46.536411 14.923347 37,000 126 459 128
2019-01-17 12:19:35 GMT 46.540691 14.914970 36,975 126 459 -64
2019-01-17 12:19:30 GMT 46.545952 14.904602 36,950 126 459 128
2019-01-17 12:19:27 GMT 46.554844 14.887230 36,950 126 459 64
2019-01-17 12:19:23 GMT 46.554844 14.887230 36,950 126 459 64
2019-01-17 12:19:17 GMT 46.567429 14.862559 36,975 126 461 0
2019-01-17 12:19:13 GMT 46.567429 14.862559 36,975 126 459 0
2019-01-17 12:19:06 GMT 46.581757 14.834491 36,975 126 461 0
2019-01-17 12:19:02 GMT 46.581757 14.834491 36,975 126 459 -64
2019-01-17 12:18:59 GMT 46.585617 14.826874 37,000 126 459 -64
2019-01-17 12:18:55 GMT 46.590134 14.818011 37,000 126 459 -64
2019-01-17 12:18:52 GMT 46.595020 14.808403 36,975 126 459 -64
2019-01-17 12:18:48 GMT 46.600605 14.797417 37,000 126 459 -64
2019-01-17 12:18:45 GMT 46.602467 14.793777 37,000 126 459 0
2019-01-17 12:18:38 GMT 46.611591 14.775787 37,000 126 459 -64
2019-01-17 12:18:35 GMT 46.615814 14.767501 37,000 126 459 -64
2019-01-17 12:18:31 GMT 46.620483 14.758390 37,025 126 459 -64
2019-01-17 12:18:25 GMT 46.628677 14.742210 37,025 126 459 0
2019-01-17 12:18:19 GMT 46.642643 14.714607 37,000 126 460 64
2019-01-17 12:18:13 GMT 46.642643 14.714607 37,000 126 460 0
2019-01-17 12:18:09 GMT 46.648087 14.703860 37,000 126 459 128
2019-01-17 12:18:03 GMT 46.656372 14.687582 37,000 126 460 0
2019-01-17 12:17:59 GMT 46.660263 14.679878 37,000 126 461 -64
2019-01-17 12:17:55 GMT 46.667084 14.666336 37,000 126 461 -64
2019-01-17 12:17:52 GMT 46.669128 14.662354 37,000 126 461 -64
2019-01-17 12:17:49 GMT 46.673740 14.653221 37,025 126 461 -64
2019-01-17 12:17:42 GMT 46.681793 14.637291 37,025 126 461 -64
2019-01-17 12:17:38 GMT 46.686813 14.627358 37,025 126 461 -64
2019-01-17 12:17:35 GMT 46.692547 14.616074 37,025 126 461 0
2019-01-17 12:17:32 GMT 46.695145 14.610879 37,025 126 460 0
2019-01-17 12:17:28 GMT 46.700600 14.600075 37,025 126 460 64
2019-01-17 12:17:24 GMT 46.706512 14.588539 37,025 126 461 64
2019-01-17 12:17:21 GMT 46.709866 14.581879 37,025 126 462 128
2019-01-17 12:17:18 GMT 46.714096 14.573498 37,000 126 462 64
2019-01-17 12:17:14 GMT 46.719269 14.563249 37,000 126 462 128
2019-01-17 12:17:11 GMT 46.721130 14.559631 37,000 126 462 128
2019-01-17 12:17:08 GMT 46.725082 14.551727 37,000 126 462 64
2019-01-17 12:17:04 GMT 46.729836 14.542328 37,000 126 462 0
2019-01-17 12:17:01 GMT 46.740494 14.521248 37,000 126 462 -64
2019-01-17 12:16:56 GMT 46.740494 14.521248 37,025 126 463 0
2019-01-17 12:16:52 GMT 46.746826 14.508585 37,025 126 463 0
2019-01-17 12:16:49 GMT 46.748840 14.504633 37,025 126 463 64
2019-01-17 12:16:46 GMT 46.754333 14.493646 37,000 126 463 128
2019-01-17 12:16:41 GMT 46.758789 14.484787 37,000 126 463 64
2019-01-17 12:16:38 GMT 46.763672 14.475090 37,000 126 463 64
2019-01-17 12:16:33 GMT 46.774757 14.453064 36,975 126 461 0
2019-01-17 12:16:29 GMT 46.774757 14.453064 37,000 126 462 0
2019-01-17 12:16:25 GMT 46.781136 14.440361 37,000 126 463 0
2019-01-17 12:16:21 GMT 46.788769 14.425186 37,000 126 461 0
2019-01-17 12:16:14 GMT 46.793701 14.415335 36,975 126 461 0
2019-01-17 12:16:11 GMT 46.796871 14.408981 36,975 126 461 0
2019-01-17 12:16:08 GMT 46.807484 14.387764 37,000 126 461 -64
2019-01-17 12:16:03 GMT 46.807484 14.387764 37,000 126 461 -128
2019-01-17 12:15:57 GMT 46.814987 14.372797 37,000 125 461 -192
2019-01-17 12:15:53 GMT 46.820240 14.362358 37,000 126 460 -64
2019-01-17 12:15:49 GMT 46.825218 14.352402 37,000 126 460 64
2019-01-17 12:15:46 GMT 46.828949 14.344996 37,000 125 461 -192
2019-01-17 12:15:41 GMT 46.835415 14.332008 36,975 126 460 64
2019-01-17 12:15:38 GMT 46.839325 14.324249 37,000 125 459 64
2019-01-17 12:15:35 GMT 46.842911 14.317061 37,000 125 461 -192
2019-01-17 12:15:31 GMT 46.847843 14.307220 37,000 126 460 0
2019-01-17 12:15:28 GMT 46.851196 14.300491 36,975 126 460 0
2019-01-17 12:15:25 GMT 46.855408 14.292074 37,000 125 459 64
2019-01-17 12:15:21 GMT 46.864014 14.274925 36,975 126 459 64
2019-01-17 12:15:18 GMT 46.864014 14.274925 36,975 125 459 64
2019-01-17 12:15:15 GMT 46.867355 14.268219 36,975 125 459 64
2019-01-17 12:15:11 GMT 46.873028 14.256873 36,975 125 459 64
2019-01-17 12:15:06 GMT 46.880013 14.242788 36,975 125 460 0
2019-01-17 12:15:00 GMT 46.886204 14.230323 36,975 125 461 0
2019-01-17 12:14:57 GMT 46.889835 14.223069 36,975 125 461 -128
2019-01-17 12:14:53 GMT 46.896725 14.209196 37,000 125 460 -64
2019-01-17 12:14:50 GMT 46.899891 14.202857 37,000 125 461 -128
2019-01-17 12:14:46 GMT 46.907867 14.186852 37,025 125 459 64
2019-01-17 12:14:43 GMT 46.907867 14.186852 37,025 126 460 64
2019-01-17 12:14:40 GMT 46.912273 14.177997 37,000 125 459 128
2019-01-17 12:14:35 GMT 46.919067 14.164264 37,000 125 459 128
2019-01-17 12:14:32 GMT 46.920914 14.160622 37,000 125 459 128
2019-01-17 12:14:29 GMT 46.925728 14.150954 37,000 125 459 64
2019-01-17 12:14:26 GMT 46.929825 14.142714 37,000 126 460 64
2019-01-17 12:14:22 GMT 46.941193 14.119904 37,000 126 460 64
2019-01-17 12:14:17 GMT 46.941193 14.119904 37,025 125 460 0
2019-01-17 12:14:13 GMT 46.944489 14.113277 37,000 125 461 0
2019-01-17 12:14:10 GMT 46.948746 14.104660 37,000 125 461 -64
2019-01-17 12:14:05 GMT 46.958817 14.084473 37,025 125 460 0
2019-01-17 12:14:02 GMT 46.958817 14.084473 37,025 125 460 0
2019-01-17 12:13:57 GMT 46.964970 14.072078 37,025 125 460 0
2019-01-17 12:13:52 GMT 46.972324 14.057218 37,025 125 460 0
2019-01-17 12:13:49 GMT 46.974838 14.052147 37,025 125 461 -64
2019-01-17 12:13:46 GMT 46.986057 14.029400 37,025 125 461 0
2019-01-17 12:13:41 GMT 46.986057 14.029400 37,025 125 461 -64
2019-01-17 12:13:37 GMT 46.989304 14.022812 37,025 125 461 -64
2019-01-17 12:13:34 GMT 46.993923 14.013484 37,025 125 461 0
2019-01-17 12:13:30 GMT 47.001980 13.997075 37,000 125 461 64
2019-01-17 12:13:24 GMT 47.006355 13.988272 37,025 125 461 64
2019-01-17 12:13:21 GMT 47.009537 13.981819 37,025 125 461 64
2019-01-17 12:13:18 GMT 47.019791 13.961082 37,000 125 461 64
2019-01-17 12:13:14 GMT 47.019791 13.961082 37,000 125 462 -64
2019-01-17 12:13:09 GMT 47.024883 13.950806 37,000 125 461 0
2019-01-17 12:13:03 GMT 47.033203 13.933960 37,000 125 462 -64
2019-01-17 12:13:00 GMT 47.037590 13.925030 37,000 125 461 0
2019-01-17 12:12:57 GMT 47.041443 13.917206 37,000 125 460 64
2019-01-17 12:12:54 GMT 47.043968 13.912072 37,025 125 462 -64
2019-01-17 12:12:51 GMT 47.046570 13.906837 37,025 125 462 -64
2019-01-17 12:12:47 GMT 47.052429 13.894958 37,025 125 462 -64
2019-01-17 12:12:43 GMT 47.057423 13.884747 37,025 125 462 0
2019-01-17 12:12:39 GMT 47.061630 13.876144 37,025 125 462 0
2019-01-17 12:12:35 GMT 47.067337 13.864605 37,025 125 461 -64
2019-01-17 12:12:32 GMT 47.077908 13.843055 37,025 125 462 -128
2019-01-17 12:12:26 GMT 47.077908 13.843055 37,050 125 462 -64
2019-01-17 12:12:22 GMT 47.083374 13.831993 37,050 125 461 0
2019-01-17 12:12:18 GMT 47.088753 13.821012 37,050 125 462 -64
2019-01-17 12:12:13 GMT 47.094292 13.809744 37,050 125 460 0
2019-01-17 12:12:09 GMT 47.101227 13.795670 37,050 125 460 0
2019-01-17 12:12:06 GMT 47.103836 13.790314 37,050 125 460 64
2019-01-17 12:12:01 GMT 47.109924 13.777954 37,050 125 460 64
2019-01-17 12:11:57 GMT 47.114960 13.767654 37,050 125 460 128
2019-01-17 12:11:53 GMT 47.120594 13.756221 37,025 125 460 64
2019-01-17 12:11:50 GMT 47.123154 13.751009 37,025 125 461 64
2019-01-17 12:11:47 GMT 47.137161 13.722404 37,025 125 460 64
2019-01-17 12:11:40 GMT 47.137161 13.722404 37,025 125 461 64
2019-01-17 12:11:37 GMT 47.140427 13.715656 37,025 125 461 64
2019-01-17 12:11:32 GMT 47.145966 13.704458 37,025 125 461 0
2019-01-17 12:11:29 GMT 47.149223 13.697768 37,025 125 461 0
2019-01-17 12:11:26 GMT 47.153133 13.689740 37,025 125 461 0
2019-01-17 12:11:20 GMT 47.161697 13.672348 37,025 125 460 64
2019-01-17 12:11:16 GMT 47.166687 13.662186 37,025 125 460 64
2019-01-17 12:11:12 GMT 47.170589 13.654175 37,000 125 460 64
2019-01-17 12:11:08 GMT 47.175571 13.643963 37,025 125 460 64
2019-01-17 12:11:05 GMT 47.179482 13.636005 37,025 125 460 128
2019-01-17 12:11:01 GMT 47.184605 13.625512 37,000 125 460 64
2019-01-17 12:10:57 GMT 47.190331 13.613821 37,000 125 460 64
2019-01-17 12:10:53 GMT 47.193420 13.607391 37,000 125 460 64
2019-01-17 12:10:49 GMT 47.198475 13.597130 37,000 125 460 64
2019-01-17 12:10:46 GMT 47.202850 13.588097 37,000 125 460 64
2019-01-17 12:10:42 GMT 47.208252 13.577042 37,000 125 460 64
2019-01-17 12:10:39 GMT 47.211231 13.570862 36,975 125 460 64
2019-01-17 12:10:36 GMT 47.215118 13.562897 36,975 125 460 64
2019-01-17 12:10:33 GMT 47.223381 13.545790 36,975 125 459 64
2019-01-17 12:10:30 GMT 47.223381 13.545790 36,975 125 459 64
2019-01-17 12:10:26 GMT 47.226654 13.539070 36,975 125 460 64
2019-01-17 12:10:22 GMT 47.234554 13.522691 36,975 125 460 64
2019-01-17 12:10:18 GMT 47.237812 13.516001 36,975 125 459 0
2019-01-17 12:10:15 GMT 47.240616 13.510300 36,975 125 459 0
2019-01-17 12:10:12 GMT 47.244965 13.501442 36,975 125 460 0
2019-01-17 12:10:09 GMT 47.248444 13.494232 36,975 125 459 0
2019-01-17 12:10:06 GMT 47.252747 13.485443 36,975 125 458 -64
2019-01-17 12:10:01 GMT 47.258286 13.474045 36,975 125 458 -64
2019-01-17 12:09:58 GMT 47.263371 13.463604 36,975 125 458 -64
2019-01-17 12:09:55 GMT 47.265930 13.458389 36,975 125 458 -64
2019-01-17 12:09:52 GMT 47.273804 13.442184 36,975 125 458 0
2019-01-17 12:09:48 GMT 47.273804 13.442184 36,975 125 458 0
2019-01-17 12:09:44 GMT 47.279984 13.429413 36,975 125 458 0
2019-01-17 12:09:41 GMT 47.282959 13.423302 36,975 125 458 0
2019-01-17 12:09:36 GMT 47.289001 13.410805 36,975 125 457 64
2019-01-17 12:09:33 GMT 47.292046 13.404588 36,975 127 454 64
2019-01-17 12:09:30 GMT 47.295822 13.396729 36,975 125 458 0
2019-01-17 12:09:26 GMT 47.302101 13.383813 36,975 126 455 0
2019-01-17 12:09:23 GMT 47.306259 13.375099 36,975 125 457 -64
2019-01-17 12:09:20 GMT 47.308945 13.369587 37,000 125 456 -64
2019-01-17 12:09:16 GMT 47.313320 13.360431 36,975 125 456 -64
2019-01-17 12:09:13 GMT 47.317043 13.352755 37,000 125 457 -64
2019-01-17 12:09:10 GMT 47.322372 13.341797 37,000 125 457 -64
2019-01-17 12:09:06 GMT 47.325485 13.335342 37,000 125 456 0
2019-01-17 12:09:03 GMT 47.330452 13.325430 37,000 127 454 0
2019-01-17 12:09:00 GMT 47.333725 13.319069 37,000 127 454 0
2019-01-17 12:08:56 GMT 47.338623 13.309662 37,000 127 454 0
2019-01-17 12:08:53 GMT 47.343063 13.301079 37,000 127 454 0
2019-01-17 12:08:50 GMT 47.346603 13.294232 37,000 127 455 -128
2019-01-17 12:08:46 GMT 47.350746 13.286274 37,000 127 455 -128
2019-01-17 12:08:43 GMT 47.354149 13.279795 37,000 127 455 -128
2019-01-17 12:08:39 GMT 47.359955 13.268600 37,025 127 455 -128
2019-01-17 12:08:35 GMT 47.366760 13.255498 37,025 127 454 -64
2019-01-17 12:08:29 GMT 47.373184 13.243263 37,025 127 454 0
2019-01-17 12:08:24 GMT 47.379364 13.231384 37,025 127 455 0
2019-01-17 12:08:18 GMT 47.386688 13.217398 37,025 127 454 64
2019-01-17 12:08:13 GMT 47.394135 13.203031 37,000 127 454 64
2019-01-17 12:08:08 GMT 47.399231 13.193275 37,025 127 455 64
2019-01-17 12:08:02 GMT 47.406658 13.178946 37,025 127 455 0
2019-01-17 12:07:57 GMT 47.412849 13.167044 37,025 127 455 -64
2019-01-17 12:07:52 GMT 47.426537 13.140634 37,025 127 455 0
2019-01-17 12:07:48 GMT 47.426537 13.140634 37,025 127 455 64
2019-01-17 12:07:45 GMT 47.429005 13.135986 37,025 127 455 64
2019-01-17 12:07:40 GMT 47.436638 13.121197 37,025 127 455 64
2019-01-17 12:07:36 GMT 47.439972 13.114792 37,025 127 455 64
2019-01-17 12:07:33 GMT 47.444969 13.105140 37,025 127 455 128
2019-01-17 12:07:29 GMT 47.449951 13.095566 37,000 127 455 128
2019-01-17 12:07:25 GMT 47.453815 13.088168 36,975 127 455 128
2019-01-17 12:07:22 GMT 47.458424 13.079294 37,000 127 456 192
2019-01-17 12:07:19 GMT 47.462357 13.071671 37,000 127 457 128
2019-01-17 12:07:16 GMT 47.466057 13.064575 36,975 127 457 64
2019-01-17 12:07:13 GMT 47.470901 13.055138 36,975 127 457 64
2019-01-17 12:07:09 GMT 47.474670 13.047913 36,975 127 457 0
2019-01-17 12:07:06 GMT 47.482304 13.033095 36,975 127 457 0
2019-01-17 12:06:59 GMT 47.488777 13.020630 36,975 127 457 64
2019-01-17 12:06:54 GMT 47.494583 13.009392 36,975 127 457 64
2019-01-17 12:06:51 GMT 47.498291 13.002251 36,975 127 457 64
2019-01-17 12:06:46 GMT 47.505936 12.987419 36,975 127 457 0
2019-01-17 12:06:43 GMT 47.509491 12.980488 36,975 127 457 0
2019-01-17 12:06:40 GMT 47.513809 12.972107 36,975 127 457 64
2019-01-17 12:06:33 GMT 47.520897 12.958444 36,975 127 457 -64
2019-01-17 12:06:30 GMT 47.524796 12.950821 36,975 127 457 0
2019-01-17 12:06:26 GMT 47.531021 12.938736 36,975 127 457 -64
2019-01-17 12:06:23 GMT 47.534256 12.932458 36,975 127 457 -64
2019-01-17 12:06:19 GMT 47.539284 12.922668 36,975 127 456 64
2019-01-17 12:06:12 GMT 47.548233 12.905296 37,000 126 457 -128
2019-01-17 12:06:09 GMT 47.551437 12.899117 37,000 127 456 64
2019-01-17 12:06:02 GMT 47.560326 12.881751 37,000 127 456 0
2019-01-17 12:05:59 GMT 47.567822 12.867103 37,000 127 456 0
2019-01-17 12:05:52 GMT 47.574619 12.853933 37,000 127 457 0
2019-01-17 12:05:49 GMT 47.581509 12.840482 37,000 127 458 -64
2019-01-17 12:05:43 GMT 47.585606 12.832524 37,000 127 458 -64
2019-01-17 12:05:38 GMT 47.591934 12.820200 37,000 127 458 -64
2019-01-17 12:05:35 GMT 47.598873 12.806608 37,025 127 457 0
2019-01-17 12:05:28 GMT 47.604767 12.795227 37,025 127 458 0
2019-01-17 12:05:25 GMT 47.608521 12.787880 37,025 127 458 0
2019-01-17 12:05:22 GMT 47.612232 12.780762 37,000 127 458 128
2019-01-17 12:05:18 GMT 47.617355 12.770714 37,025 127 458 64
2019-01-17 12:05:15 GMT 47.621262 12.763015 37,025 127 458 128
2019-01-17 12:05:12 GMT 47.625137 12.755470 37,000 127 458 64
2019-01-17 12:05:08 GMT 47.634430 12.737343 37,000 127 459 64
2019-01-17 12:05:05 GMT 47.634430 12.737343 37,000 127 459 0
2019-01-17 12:05:01 GMT 47.638161 12.730056 37,000 127 459 64
2019-01-17 12:04:58 GMT 47.643539 12.719627 37,000 127 459 -64
2019-01-17 12:04:55 GMT 47.652313 12.702378 37,000 127 459 -64
2019-01-17 12:04:52 GMT 47.652313 12.702378 37,025 127 459 0
2019-01-17 12:04:46 GMT 47.658085 12.691110 37,000 127 459 64
2019-01-17 12:04:43 GMT 47.662994 12.681519 37,025 127 459 64
2019-01-17 12:04:39 GMT 47.667389 12.672867 37,025 127 459 64
2019-01-17 12:04:36 GMT 47.670868 12.666069 37,000 127 459 64
2019-01-17 12:04:33 GMT 47.674797 12.658363 37,000 127 459 64
2019-01-17 12:04:29 GMT 47.681225 12.645827 37,000 127 459 64
2019-01-17 12:04:26 GMT 47.683830 12.640686 37,000 127 461 0
2019-01-17 12:04:23 GMT 47.691559 12.625488 37,000 127 461 0
2019-01-17 12:04:17 GMT 47.694538 12.619629 37,000 126 462 0
2019-01-17 12:04:14 GMT 47.698975 12.610931 37,000 126 462 0
2019-01-17 12:04:11 GMT 47.703598 12.601799 37,000 126 462 0
2019-01-17 12:04:08 GMT 47.707153 12.594839 37,000 126 462 0
2019-01-17 12:04:05 GMT 47.710411 12.588501 37,025 126 462 -64
2019-01-17 12:04:02 GMT 47.715683 12.578110 37,000 126 462 0
2019-01-17 12:03:59 GMT 47.718658 12.572136 37,000 126 462 0
2019-01-17 12:03:56 GMT 47.722095 12.565402 37,000 126 462 0
2019-01-17 12:03:53 GMT 47.726440 12.556961 37,000 126 462 64
2019-01-17 12:03:49 GMT 47.736385 12.537372 37,000 126 462 64
2019-01-17 12:03:45 GMT 47.736385 12.537372 37,000 126 462 64
2019-01-17 12:03:42 GMT 47.741367 12.527442 37,000 126 462 0
2019-01-17 12:03:38 GMT 47.746674 12.516998 37,000 126 463 0
2019-01-17 12:03:35 GMT 47.750072 12.510329 37,000 126 463 0
2019-01-17 12:03:28 GMT 47.758362 12.493920 37,000 126 463 64
2019-01-17 12:03:25 GMT 47.762085 12.486525 37,025 126 462 64
2019-01-17 12:03:22 GMT 47.766182 12.478497 37,000 126 462 64
2019-01-17 12:03:17 GMT 47.772419 12.466243 37,000 126 462 -64
2019-01-17 12:03:14 GMT 47.776062 12.458977 37,000 127 463 -64
2019-01-17 12:03:11 GMT 47.779961 12.451313 37,000 127 463 -64
2019-01-17 12:03:08 GMT 47.784523 12.442369 37,000 126 461 128
2019-01-17 12:03:04 GMT 47.789841 12.431854 37,000 126 461 128
2019-01-17 12:03:00 GMT 47.793594 12.424507 36,875 126 459 704
2019-01-17 12:02:57 GMT 47.799000 12.413847 37,000 126 461 128
2019-01-17 12:02:53 GMT 47.802841 12.406174 37,000 126 460 128
2019-01-17 12:02:49 GMT 47.809799 12.392437 36,975 126 461 0
2019-01-17 12:02:46 GMT 47.812359 12.387367 36,975 126 460 128
2019-01-17 12:02:43 GMT 47.816940 12.378296 36,975 126 461 -64
2019-01-17 12:02:39 GMT 47.821289 12.369713 37,000 126 460 0
2019-01-17 12:02:36 GMT 47.825768 12.360887 37,000 126 461 -64
2019-01-17 12:02:32 GMT 47.829575 12.353302 37,000 126 460 -64
2019-01-17 12:02:28 GMT 47.838684 12.335312 36,875 126 457 704
2019-01-17 12:02:25 GMT 47.838684 12.335312 37,000 126 458 320
2019-01-17 12:02:22 GMT 47.842392 12.327896 37,000 126 458 384
2019-01-17 12:02:19 GMT 47.846344 12.320111 36,950 126 457 640
2019-01-17 12:02:16 GMT 47.849510 12.313772 36,850 126 458 704
2019-01-17 12:02:13 GMT 47.854027 12.304899 36,875 126 457 704
2019-01-17 12:02:10 GMT 47.863358 12.286354 36,825 126 457 704
2019-01-17 12:02:07 GMT 47.863358 12.286354 36,825 126 457 704
2019-01-17 12:02:03 GMT 47.867752 12.277634 36,775 126 458 704
2019-01-17 12:02:00 GMT 47.870682 12.271797 36,225 126 461 768
2019-01-17 12:01:56 GMT 47.875858 12.261517 36,700 126 457 640
2019-01-17 12:01:53 GMT 47.879768 12.253770 36,650 126 457 640
2019-01-17 12:01:50 GMT 47.883453 12.246391 36,650 126 457 640
2019-01-17 12:01:47 GMT 47.887215 12.238910 36,625 126 457 640
2019-01-17 12:01:43 GMT 47.891556 12.230324 36,550 126 458 704
2019-01-17 12:01:40 GMT 47.897049 12.219406 36,525 126 457 704
2019-01-17 12:01:37 GMT 47.899475 12.214531 36,425 127 458 704
2019-01-17 12:01:34 GMT 47.904907 12.203698 36,425 126 459 704
2019-01-17 12:01:30 GMT 47.912262 12.188979 36,325 126 461 704
2019-01-17 12:01:27 GMT 47.912262 12.188979 36,200 127 464 832
2019-01-17 12:01:24 GMT 47.916138 12.181229 36,300 126 461 832
2019-01-17 12:01:20 GMT 47.925434 12.162569 36,200 126 463 1152
2019-01-17 12:01:17 GMT 47.925434 12.162569 36,225 126 462 896
2019-01-17 12:01:14 GMT 47.928181 12.157076 36,200 127 463 1088
2019-01-17 12:01:10 GMT 47.933762 12.145866 36,025 126 464 832
2019-01-17 12:01:07 GMT 47.938751 12.135841 35,975 126 463 704
2019-01-17 12:01:03 GMT 47.941956 12.129387 36,050 126 463 704
2019-01-17 12:00:59 GMT 47.949177 12.114962 35,975 126 463 640
2019-01-17 12:00:56 GMT 47.951691 12.109962 35,925 126 463 704
2019-01-17 12:00:53 GMT 47.955463 12.102426 35,900 126 463 704
2019-01-17 12:00:49 GMT 47.961502 12.090317 35,875 126 463 704
2019-01-17 12:00:46 GMT 47.964680 12.083975 35,550 126 465 832
2019-01-17 12:00:43 GMT 47.968689 12.076035 35,800 126 463 832
2019-01-17 12:00:39 GMT 47.972946 12.067451 35,750 126 463 1024
2019-01-17 12:00:36 GMT 47.978832 12.055734 35,675 126 464 1088
2019-01-17 12:00:32 GMT 47.982647 12.048058 35,575 126 463 1152
2019-01-17 12:00:28 GMT 47.988888 12.035522 35,525 126 464 1088
2019-01-17 12:00:25 GMT 47.991402 12.030522 35,500 126 464 1088
2019-01-17 12:00:22 GMT 47.995193 12.022888 35,425 126 464 1024
2019-01-17 12:00:19 GMT 47.999405 12.014374 35,350 126 465 832
2019-01-17 12:00:16 GMT 48.004257 12.004623 35,325 126 465 896
2019-01-17 12:00:13 GMT 48.008160 11.996789 35,250 126 465 832
2019-01-17 12:00:09 GMT 48.011513 11.990098 35,225 126 463 832
2019-01-17 12:00:06 GMT 48.016071 11.980802 35,200 126 465 896
2019-01-17 12:00:03 GMT 48.019703 11.973548 35,150 127 464 832
2019-01-17 11:59:58 GMT 48.025383 11.962139 35,100 126 464 704
2019-01-17 11:59:55 GMT 48.029938 11.952988 35,050 126 464 640
2019-01-17 11:59:52 GMT 48.033482 11.945801 35,025 127 464 640
2019-01-17 11:59:49 GMT 48.038132 11.936508 34,975 126 463 576
2019-01-17 11:59:46 GMT 48.041260 11.930237 34,950 126 463 576
2019-01-17 11:59:43 GMT 48.045731 11.921265 34,925 126 463 832
2019-01-17 11:59:39 GMT 48.050171 11.912407 34,850 126 463 960
2019-01-17 11:59:36 GMT 48.054565 11.903481 34,800 126 462 1152
2019-01-17 11:59:33 GMT 48.057724 11.897232 34,725 126 464 1344
2019-01-17 11:59:30 GMT 48.061203 11.890160 34,575 126 464 1344
2019-01-17 11:59:26 GMT 48.067520 11.877457 34,575 126 464 1280
2019-01-17 11:59:23 GMT 48.071377 11.869671 34,500 125 464 1280
2019-01-17 11:59:19 GMT 48.077290 11.857699 34,425 126 463 1344
2019-01-17 11:59:16 GMT 48.079376 11.853493 34,400 126 465 1280
2019-01-17 11:59:13 GMT 48.084366 11.843399 34,275 126 466 1216
2019-01-17 11:59:09 GMT 48.088120 11.835777 34,275 126 466 1024
2019-01-17 11:59:05 GMT 48.093933 11.824173 34,175 126 466 1024
2019-01-17 11:59:02 GMT 48.098331 11.815232 34,100 126 467 1088
2019-01-17 11:58:57 GMT 48.104050 11.803711 33,950 126 467 1280
2019-01-17 11:58:54 GMT 48.112576 11.786429 33,925 126 467 1280
2019-01-17 11:58:51 GMT 48.112576 11.786429 33,875 126 467 1344
2019-01-17 11:58:46 GMT 48.122864 11.765465 33,700 126 469 1152
2019-01-17 11:58:43 GMT 48.122864 11.765465 33,700 126 469 1088
2019-01-17 11:58:40 GMT 48.130638 11.749667 33,625 126 469 1024
2019-01-17 11:58:36 GMT 48.130638 11.749667 33,525 126 469 960
2019-01-17 11:58:33 GMT 48.134537 11.741707 33,525 126 469 896
2019-01-17 11:58:30 GMT 48.138271 11.734103 33,500 126 468 832
2019-01-17 11:58:26 GMT 48.144241 11.722000 33,425 126 467 704
2019-01-17 11:58:23 GMT 48.148560 11.713257 33,375 126 467 768
2019-01-17 11:58:20 GMT 48.151169 11.707975 33,375 125 466 768
2019-01-17 11:58:16 GMT 48.157963 11.694172 33,300 126 467 960
2019-01-17 11:58:13 GMT 48.160812 11.688397 33,225 126 467 1152
2019-01-17 11:58:10 GMT 48.164204 11.681502 33,225 125 466 1152
2019-01-17 11:58:05 GMT 48.171139 11.667408 33,100 125 468 1280
2019-01-17 11:58:02 GMT 48.175049 11.659530 33,050 126 467 1152
2019-01-17 11:57:59 GMT 48.177608 11.654254 33,000 125 468 1216
2019-01-17 11:57:56 GMT 48.181961 11.645437 32,900 125 468 1280
2019-01-17 11:57:53 GMT 48.185570 11.637991 32,850 125 468 1344
2019-01-17 11:57:50 GMT 48.194321 11.619126 32,750 123 470 1600
2019-01-17 11:57:47 GMT 48.194321 11.619126 32,700 123 472 1728
2019-01-17 11:57:42 GMT 48.200047 11.605682 32,575 121 474 1984
2019-01-17 11:57:39 GMT 48.202560 11.599466 32,500 121 476 2048
2019-01-17 11:57:32 GMT 48.211128 11.576626 32,125 117 486 2304
2019-01-17 11:57:29 GMT 48.213642 11.569399 32,075 117 488 2304
2019-01-17 11:57:22 GMT 48.223743 11.536367 31,750 112 497 2112
2019-01-17 11:57:19 GMT 48.223743 11.536367 31,675 111 499 2112
2019-01-17 11:57:14 GMT 48.229794 11.513021 31,475 110 503 1984
2019-01-17 11:57:11 GMT 48.229794 11.513021 31,450 109 504 1920
2019-01-17 11:57:08 GMT 48.232121 11.503119 31,350 108 507 1664
2019-01-17 11:57:04 GMT 48.235565 11.487192 31,225 107 510 1536
2019-01-17 11:57:01 GMT 48.237030 11.480009 31,175 107 511 1280
2019-01-17 11:56:58 GMT 48.239197 11.469437 31,000 109 508 256
2019-01-17 11:56:52 GMT 48.243896 11.448036 31,025 110 507 192
2019-01-17 11:56:49 GMT 48.246181 11.438358 31,000 110 507 0
2019-01-17 11:56:46 GMT 48.247765 11.431708 31,000 110 507 64
2019-01-17 11:56:42 GMT 48.252548 11.413175 31,000 113 503 -64
2019-01-17 11:56:39 GMT 48.254280 11.406772 31,000 112 505 0
2019-01-17 11:56:36 GMT 48.256935 11.397231 31,000 112 505 0
2019-01-17 11:56:33 GMT 48.260422 11.385146 31,025 115 501 0
2019-01-17 11:56:30 GMT 48.263306 11.375639 31,025 115 501 0
2019-01-17 11:56:26 GMT 48.267178 11.363333 31,025 115 500 64
2019-01-17 11:56:22 GMT 48.270714 11.352635 31,000 116 497 128
2019-01-17 11:56:19 GMT 48.273319 11.344902 31,000 117 496 192
2019-01-17 11:56:15 GMT 48.278641 11.330003 31,000 119 492 -128
2019-01-17 11:56:12 GMT 48.281933 11.321050 31,000 119 492 -128
2019-01-17 11:56:09 GMT 48.285233 11.312397 31,000 121 488 192
2019-01-17 11:56:06 GMT 48.288170 11.304932 31,000 125 480 960
2019-01-17 11:56:02 GMT 48.292591 11.293945 30,975 122 486 384
2019-01-17 11:55:59 GMT 48.297203 11.282959 30,975 122 484 512
2019-01-17 11:55:56 GMT 48.303394 11.268720 30,925 124 482 768
2019-01-17 11:55:49 GMT 48.308605 11.257300 30,850 125 481 960
2019-01-17 11:55:46 GMT 48.313293 11.247394 30,800 126 479 960
2019-01-17 11:55:40 GMT 48.320572 11.232509 30,725 127 477 1024
2019-01-17 11:55:37 GMT 48.323776 11.226267 30,500 128 475 960
2019-01-17 11:55:33 GMT 48.330673 11.213138 30,500 128 474 960
2019-01-17 11:55:29 GMT 48.336166 11.203091 30,550 130 471 960
2019-01-17 11:55:25 GMT 48.342545 11.191744 30,450 131 469 960
2019-01-17 11:55:20 GMT 48.348816 11.181054 30,375 132 468 960
2019-01-17 11:55:17 GMT 48.353073 11.174082 30,350 132 467 896
2019-01-17 11:55:14 GMT 48.356556 11.168470 30,325 132 466 896
2019-01-17 11:55:09 GMT 48.366055 11.153581 30,125 133 463 1024
2019-01-17 11:55:06 GMT 48.369217 11.148593 30,150 133 463 1024
2019-01-17 11:55:00 GMT 48.378902 11.133559 30,075 134 463 1088
2019-01-17 11:54:56 GMT 48.384064 11.125559 29,975 133 462 1344
2019-01-17 11:54:52 GMT 48.393147 11.111370 29,925 133 462 1536
2019-01-17 11:54:49 GMT 48.395416 11.107882 29,775 134 463 1152
2019-01-17 11:54:46 GMT 48.398117 11.103656 29,575 133 462 1152
2019-01-17 11:54:43 GMT 48.402550 11.096770 29,700 133 462 1152
2019-01-17 11:54:39 GMT 48.407730 11.088656 29,650 134 461 1152
2019-01-17 11:54:36 GMT 48.412327 11.081591 29,475 134 461 1088
2019-01-17 11:54:33 GMT 48.418259 11.072317 29,425 134 461 1088
2019-01-17 11:54:29 GMT 48.423386 11.064430 29,450 134 461 1088
2019-01-17 11:54:26 GMT 48.429016 11.055627 29,375 134 461 1088
2019-01-17 11:54:23 GMT 48.432716 11.049861 29,350 134 461 1088
2019-01-17 11:54:20 GMT 48.442909 11.034032 29,225 134 461 1088
2019-01-17 11:54:13 GMT 48.448078 11.026081 29,150 134 460 1088
2019-01-17 11:54:10 GMT 48.451336 11.020950 29,100 134 460 1088
2019-01-17 11:54:07 GMT 48.455574 11.014444 29,050 133 459 1088
2019-01-17 11:54:04 GMT 48.459961 11.007597 29,025 134 458 1088
2019-01-17 11:54:01 GMT 48.464218 11.000906 28,875 133 459 1088
2019-01-17 11:53:57 GMT 48.471085 10.990272 28,300 133 459 1088
2019-01-17 11:53:54 GMT 48.476212 10.982173 28,675 133 456 1088
2019-01-17 11:53:51 GMT 48.479919 10.976354 28,600 133 458 1088
2019-01-17 11:53:47 GMT 48.487320 10.964572 28,700 133 455 1024
2019-01-17 11:53:44 GMT 48.489555 10.960958 28,650 133 458 1088
2019-01-17 11:53:41 GMT 48.497982 10.947515 28,550 133 457 1088
2019-01-17 11:53:34 GMT 48.505245 10.935878 28,425 133 456 1088
2019-01-17 11:53:30 GMT 48.510132 10.928016 28,250 133 450 1088
2019-01-17 11:53:27 GMT 48.515854 10.918931 28,300 133 454 1088
2019-01-17 11:53:24 GMT 48.518097 10.915340 28,300 133 454 1088
2019-01-17 11:53:21 GMT 48.528103 10.899305 28,175 133 453 1088
2019-01-17 11:53:18 GMT 48.528103 10.899305 28,150 133 453 1088
2019-01-17 11:53:15 GMT 48.531876 10.893296 26,550 133 449 1088
2019-01-17 11:53:12 GMT 48.536575 10.885789 28,025 133 449 1088
2019-01-17 11:53:09 GMT 48.540718 10.879211 28,025 133 451 1088
2019-01-17 11:53:06 GMT 48.546249 10.870338 27,925 133 448 1088
2019-01-17 11:53:03 GMT 48.549683 10.864774 27,675 133 448 1088
2019-01-17 11:52:59 GMT 48.556229 10.854210 27,750 133 447 1088
2019-01-17 11:52:56 GMT 48.560593 10.847264 27,725 133 447 1088
2019-01-17 11:52:53 GMT 48.563576 10.842494 27,600 133 446 1152
2019-01-17 11:52:50 GMT 48.568321 10.834905 27,625 133 445 1152
2019-01-17 11:52:46 GMT 48.573212 10.827026 27,425 133 444 1280
2019-01-17 11:52:43 GMT 48.579025 10.817801 27,475 133 444 1344
2019-01-17 11:52:38 GMT 48.584568 10.808957 27,300 133 443 1344
2019-01-17 11:52:35 GMT 48.588593 10.802589 27,325 133 443 1344
2019-01-17 11:52:32 GMT 48.592854 10.795802 27,250 133 442 1344
2019-01-17 11:52:29 GMT 48.597183 10.788863 27,175 133 443 1600
2019-01-17 11:52:25 GMT 48.603653 10.778574 27,050 133 443 1600
2019-01-17 11:52:21 GMT 48.607773 10.772024 27,025 133 443 1472
2019-01-17 11:52:18 GMT 48.617203 10.757024 26,800 133 441 960
2019-01-17 11:52:14 GMT 48.617203 10.757024 26,775 133 442 1088
2019-01-17 11:52:11 GMT 48.628376 10.739136 26,725 133 441 960
2019-01-17 11:52:07 GMT 48.628376 10.739136 26,725 133 441 960
2019-01-17 11:52:03 GMT 48.634827 10.728854 26,600 133 439 1408
2019-01-17 11:52:00 GMT 48.638947 10.722304 26,550 133 439 1472
2019-01-17 11:51:57 GMT 48.641129 10.718825 26,475 132 438 1472
2019-01-17 11:51:53 GMT 48.647739 10.708201 26,250 133 437 1152
2019-01-17 11:51:47 GMT 48.655094 10.696419 26,050 133 434 768
2019-01-17 11:51:44 GMT 48.660355 10.687963 26,200 133 435 960
2019-01-17 11:51:41 GMT 48.663334 10.683264 26,150 133 435 832
2019-01-17 11:51:38 GMT 48.668198 10.675471 26,125 133 433 768
2019-01-17 11:51:35 GMT 48.673141 10.667584 26,050 133 429 1664
2019-01-17 11:51:32 GMT 48.676392 10.662443 25,400 124 440 1472
2019-01-17 11:51:28 GMT 48.681770 10.653919 25,950 133 430 1472
2019-01-17 11:51:24 GMT 48.688007 10.644017 25,825 133 429 1728
2019-01-17 11:51:20 GMT 48.693176 10.635778 25,750 133 429 1728
2019-01-17 11:51:16 GMT 48.698807 10.626454 25,600 131 432 1600
2019-01-17 11:51:13 GMT 48.702484 10.620021 25,550 129 434 1536
2019-01-17 11:51:10 GMT 48.706238 10.612793 25,300 119 447 1536
2019-01-17 11:51:07 GMT 48.709843 10.605276 25,400 121 444 1472
2019-01-17 11:51:04 GMT 48.713058 10.597792 25,075 121 445 1472
2019-01-17 11:50:59 GMT 48.720825 10.576581 24,175 116 450 1600
2019-01-17 11:50:56 GMT 48.721710 10.573690 25,000 114 453 1728
2019-01-17 11:50:52 GMT 48.723724 10.566946 25,025 112 455 1728
2019-01-17 11:50:49 GMT 48.726646 10.555910 24,925 93 463 1088
2019-01-17 11:50:46 GMT 48.728695 10.546658 24,825 105 464 1664
2019-01-17 11:50:43 GMT 48.730820 10.535889 24,625 100 471 1600
2019-01-17 11:50:40 GMT 48.732147 10.528071 24,600 102 469 1600
2019-01-17 11:50:37 GMT 48.733521 10.518282 24,425 100 471 1600
2019-01-17 11:50:34 GMT 48.734573 10.509902 24,425 100 471 1600
2019-01-17 11:50:31 GMT 48.736404 10.488915 24,375 96 474 1408
2019-01-17 11:50:28 GMT 48.736404 10.488915 24,350 94 474 1408
2019-01-17 11:50:25 GMT 48.736839 10.480885 24,275 93 466 1664
2019-01-17 11:50:22 GMT 48.737541 10.465779 24,200 93 475 1344
2019-01-17 11:50:19 GMT 48.737961 10.457012 24,125 93 474 1216
2019-01-17 11:50:16 GMT 48.738285 10.449155 24,075 93 473 1152
2019-01-17 11:50:13 GMT 48.738739 10.439195 24,025 93 472 1152
2019-01-17 11:50:10 GMT 48.739197 10.428772 23,975 93 470 1216
2019-01-17 11:50:07 GMT 48.739494 10.422050 23,025 93 468 1920
2019-01-17 11:50:04 GMT 48.740005 10.410702 23,900 93 470 1344
2019-01-17 11:50:01 GMT 48.740479 10.399546 23,725 93 469 1600
2019-01-17 11:49:56 GMT 48.741302 10.381094 23,525 93 467 1920
2019-01-17 11:49:53 GMT 48.741497 10.376153 23,475 93 467 1984
2019-01-17 11:49:50 GMT 48.741962 10.365022 23,425 93 467 1984
2019-01-17 11:49:47 GMT 48.742355 10.355811 23,025 93 468 1920
2019-01-17 11:49:44 GMT 48.742859 10.344614 23,225 93 467 2048
2019-01-17 11:49:40 GMT 48.743454 10.330318 23,025 93 463 1536
2019-01-17 11:49:37 GMT 48.743870 10.321005 23,000 93 468 1856
2019-01-17 11:49:32 GMT 48.744507 10.306021 22,850 93 468 1856
2019-01-17 11:49:28 GMT 48.745239 10.289401 22,675 93 464 1792
2019-01-17 11:49:25 GMT 48.745640 10.280095 22,550 93 466 1664
2019-01-17 11:49:22 GMT 48.745972 10.272428 22,550 93 466 1664
2019-01-17 11:49:19 GMT 48.746429 10.262098 22,400 93 465 1664
2019-01-17 11:49:15 GMT 48.746841 10.252427 22,325 93 464 1856
2019-01-17 11:49:12 GMT 48.747345 10.240173 22,225 93 465 1792
2019-01-17 11:49:09 GMT 48.747803 10.230243 22,025 93 464 1856
2019-01-17 11:49:05 GMT 48.748245 10.218803 19,525 93 463 960
2019-01-17 11:49:02 GMT 48.748711 10.207672 21,950 93 464 1792
2019-01-17 11:48:59 GMT 48.749271 10.194590 21,825 93 463 1728
2019-01-17 11:48:55 GMT 48.749596 10.186784 21,750 93 463 1536
2019-01-17 11:48:51 GMT 48.750622 10.161992 21,625 93 454 2048
2019-01-17 11:48:48 GMT 48.750622 10.161992 21,300 93 463 1024
2019-01-17 11:48:45 GMT 48.750992 10.152596 21,550 93 463 960
2019-01-17 11:48:42 GMT 48.751785 10.133804 21,450 93 461 1280
2019-01-17 11:48:39 GMT 48.751785 10.133804 21,300 93 459 1280
2019-01-17 11:48:36 GMT 48.752289 10.121014 21,350 93 461 1344
2019-01-17 11:48:32 GMT 48.752670 10.111686 21,275 93 459 1280
2019-01-17 11:48:29 GMT 48.753040 10.101856 21,125 93 456 1728
2019-01-17 11:48:25 GMT 48.753708 10.085449 21,075 93 456 1728
2019-01-17 11:48:22 GMT 48.753925 10.079522 20,825 93 455 1920
2019-01-17 11:48:19 GMT 48.754299 10.070198 20,875 93 455 1984
2019-01-17 11:48:15 GMT 48.754852 10.056011 20,775 93 454 2048
2019-01-17 11:48:12 GMT 48.755184 10.047792 20,650 93 454 2176
2019-01-17 11:48:09 GMT 48.755539 10.038053 20,450 93 454 2176
2019-01-17 11:48:04 GMT 48.756180 10.022207 20,325 93 454 1984
2019-01-17 11:48:01 GMT 48.756485 10.013677 20,300 93 454 1984
2019-01-17 11:47:58 GMT 48.756950 10.002329 20,200 93 453 1856
2019-01-17 11:47:54 GMT 48.757465 9.988379 20,000 93 448 1536
2019-01-17 11:47:51 GMT 48.758068 9.972695 19,950 93 451 1856
2019-01-17 11:47:48 GMT 48.758068 9.972695 19,800 93 451 1920
2019-01-17 11:47:45 GMT 48.758488 9.963009 19,075 93 441 832
2019-01-17 11:47:42 GMT 48.758835 9.953684 19,725 93 450 1984
2019-01-17 11:47:39 GMT 48.759247 9.943472 19,600 93 448 1984
2019-01-17 11:47:35 GMT 48.759792 9.930629 19,425 93 448 2048
2019-01-17 11:47:32 GMT 48.760162 9.922028 19,400 93 448 1920
2019-01-17 11:47:29 GMT 48.760628 9.911258 19,250 93 447 1344
2019-01-17 11:47:26 GMT 48.761093 9.900127 19,175 88 425 1088
2019-01-17 11:47:23 GMT 48.761467 9.892610 18,100 67 404 2240
2019-01-17 11:47:20 GMT 48.761810 9.884385 19,125 94 442 960
2019-01-17 11:47:17 GMT 48.762314 9.873892 19,075 93 440 768
2019-01-17 11:47:13 GMT 48.762817 9.862201 19,025 93 435 192
2019-01-17 11:47:10 GMT 48.763641 9.842412 19,000 93 430 384
2019-01-17 11:47:07 GMT 48.763641 9.842412 19,000 92 429 512
2019-01-17 11:47:03 GMT 48.764008 9.832200 18,975 92 427 768
2019-01-17 11:47:00 GMT 48.764214 9.822572 18,925 81 424 1536
2019-01-17 11:46:57 GMT 48.764282 9.811354 18,850 86 424 1216
2019-01-17 11:46:54 GMT 48.764122 9.805226 18,550 79 425 1728
2019-01-17 11:46:51 GMT 48.763596 9.796283 18,750 79 425 1728
2019-01-17 11:46:48 GMT 48.762909 9.789107 18,675 79 425 1728
2019-01-17 11:46:44 GMT 48.761143 9.775302 18,550 76 424 1920
2019-01-17 11:46:41 GMT 48.759186 9.764099 18,450 72 424 1920
2019-01-17 11:46:38 GMT 48.758057 9.758676 18,350 71 424 1920
2019-01-17 11:46:35 GMT 48.755585 9.748324 18,200 68 423 1920
2019-01-17 11:46:31 GMT 48.753693 9.741115 18,150 67 423 1984
2019-01-17 11:46:28 GMT 48.750778 9.730577 18,050 67 421 1920
2019-01-17 11:46:23 GMT 48.747410 9.718419 17,850 67 420 1920
2019-01-17 11:46:20 GMT 48.744278 9.707125 17,725 67 419 1920
2019-01-17 11:46:17 GMT 48.742054 9.699121 17,625 67 417 1920
2019-01-17 11:46:13 GMT 48.739563 9.690153 17,575 67 416 1920
2019-01-17 11:46:10 GMT 48.736980 9.680834 17,300 67 414 1984
2019-01-17 11:46:07 GMT 48.735493 9.675486 17,325 67 414 1984
2019-01-17 11:46:03 GMT 48.730499 9.657757 17,125 67 412 1984
2019-01-17 11:45:57 GMT 48.727577 9.647297 16,750 66 408 2176
2019-01-17 11:45:53 GMT 48.724457 9.636238 16,800 67 406 2176
2019-01-17 11:45:50 GMT 48.722946 9.630925 16,750 67 409 2176
2019-01-17 11:45:47 GMT 48.720268 9.621349 16,675 67 409 2176
2019-01-17 11:45:44 GMT 48.718597 9.615361 16,525 66 408 2176
2019-01-17 11:45:41 GMT 48.716034 9.606206 16,325 67 405 2240
2019-01-17 11:45:38 GMT 48.713699 9.597825 16,175 67 406 2176
2019-01-17 11:45:34 GMT 48.710445 9.586222 16,050 67 406 2240
2019-01-17 11:45:31 GMT 48.708027 9.577621 15,975 67 404 2240
2019-01-17 11:45:28 GMT 48.706284 9.571345 15,675 67 405 2240
2019-01-17 11:45:25 GMT 48.704674 9.565478 15,800 67 405 2240
2019-01-17 11:45:20 GMT 48.700699 9.551415 15,550 67 402 2112
2019-01-17 11:45:17 GMT 48.698776 9.544513 15,375 67 401 2240
2019-01-17 11:45:14 GMT 48.696247 9.535410 15,375 67 402 2240
2019-01-17 11:45:11 GMT 48.694336 9.528738 15,175 67 400 2176
2019-01-17 11:45:08 GMT 48.692291 9.521171 15,225 67 401 2304
2019-01-17 11:45:05 GMT 48.689850 9.512611 15,000 66 400 2240
2019-01-17 11:45:00 GMT 48.686142 9.499512 14,825 66 398 2240
2019-01-17 11:44:57 GMT 48.683723 9.490959 14,750 66 397 2240
2019-01-17 11:44:54 GMT 48.681976 9.484722 14,675 66 397 2176
2019-01-17 11:44:51 GMT 48.676884 9.466601 14,425 66 396 2240
2019-01-17 11:44:48 GMT 48.676884 9.466601 14,350 66 395 2240
2019-01-17 11:44:45 GMT 48.674740 9.459012 14,225 66 394 2240
2019-01-17 11:44:42 GMT 48.672729 9.451904 14,100 66 393 2240
2019-01-17 11:44:38 GMT 48.668198 9.435777 13,550 66 392 2240
2019-01-17 11:44:35 GMT 48.668198 9.435777 13,875 66 392 2240
2019-01-17 11:44:32 GMT 48.666138 9.428523 13,575 66 388 2304
2019-01-17 11:44:29 GMT 48.663662 9.419764 13,625 67 389 2240
2019-01-17 11:44:25 GMT 48.661057 9.410565 13,500 66 388 2304
2019-01-17 11:44:22 GMT 48.658218 9.400353 13,275 67 386 2304
2019-01-17 11:44:18 GMT 48.656490 9.394322 13,275 67 386 2240
2019-01-17 11:44:14 GMT 48.653732 9.384437 13,075 66 385 2368
2019-01-17 11:44:11 GMT 48.651215 9.375563 12,950 66 384 2176
2019-01-17 11:44:07 GMT 48.648193 9.364718 12,775 66 380 2176
2019-01-17 11:44:00 GMT 48.643040 9.346691 12,500 66 379 2176
2019-01-17 11:43:57 GMT 48.641968 9.342788 12,425 66 376 2176
2019-01-17 11:43:53 GMT 48.638432 9.330501 12,275 66 378 2176
2019-01-17 11:43:50 GMT 48.636795 9.324716 12,175 66 375 2176
2019-01-17 11:43:47 GMT 48.634613 9.316984 12,050 72 364 2112
2019-01-17 11:43:44 GMT 48.632858 9.310772 11,950 67 372 2176
2019-01-17 11:43:41 GMT 48.630569 9.302462 11,800 67 370 2176
2019-01-17 11:43:38 GMT 48.628922 9.296476 11,650 83 354 2048
2019-01-17 11:43:34 GMT 48.623951 9.277087 11,425 71 365 2112
2019-01-17 11:43:31 GMT 48.623951 9.277087 11,425 71 365 2112
2019-01-17 11:43:28 GMT 48.622929 9.272605 11,275 75 362 2112
2019-01-17 11:43:25 GMT 48.621597 9.265278 11,250 76 361 2112
2019-01-17 11:43:22 GMT 48.619621 9.250922 11,025 83 353 1984
2019-01-17 11:43:16 GMT 48.618851 9.242671 10,850 83 353 1984
2019-01-17 11:43:13 GMT 48.618320 9.235599 10,825 83 353 1984
2019-01-17 11:43:10 GMT 48.617668 9.226925 10,650 80 347 1536
2019-01-17 11:43:07 GMT 48.616829 9.218397 10,625 79 348 1472
2019-01-17 11:43:00 GMT 48.613106 9.198014 10,475 70 339 1280
2019-01-17 11:42:57 GMT 48.611382 9.191220 10,400 67 336 1408
2019-01-17 11:42:54 GMT 48.611382 9.191220 10,350 66 334 1600
2019-01-17 11:42:50 GMT 48.608917 9.183197 10,150 63 330 2240
2019-01-17 11:42:47 GMT 48.605484 9.172739 10,025 63 327 2176
2019-01-17 11:42:43 GMT 48.603790 9.167457 9,950 66 325 1856
2019-01-17 11:42:39 GMT 48.601822 9.160274 9,825 69 323 1600
2019-01-17 11:42:36 GMT 48.599808 9.150766 9,775 75 317 1472
2019-01-17 11:42:33 GMT 48.598953 9.144311 9,650 80 314 1664
2019-01-17 11:42:27 GMT 48.598343 9.132104 9,425 93 304 2432
2019-01-17 11:42:24 GMT 48.598480 9.128864 9,400 95 303 2432
2019-01-17 11:42:20 GMT 48.599350 9.119709 9,175 100 299 2496
2019-01-17 11:42:17 GMT 48.600220 9.114427 9,100 108 293 2688
2019-01-17 11:42:14 GMT 48.601639 9.108582 8,900 115 288 2880
2019-01-17 11:42:11 GMT 48.603378 9.103159 8,700 128 278 2624
2019-01-17 11:42:06 GMT 48.608215 9.092849 8,475 139 270 2304
2019-01-17 11:42:01 GMT 48.611477 9.088223 8,325 141 267 2368
2019-01-17 11:41:56 GMT 48.617981 9.081679 8,075 152 257 2624
2019-01-17 11:41:52 GMT 48.622192 9.078933 7,875 161 248 2816
2019-01-17 11:41:45 GMT 48.628967 9.076256 7,475 178 235 3008
2019-01-17 11:41:40 GMT 48.634415 9.075552 7,325 182 233 2944
2019-01-17 11:41:37 GMT 48.637825 9.075791 7,175 188 228 3008
2019-01-17 11:41:31 GMT 48.644016 9.077526 6,850 197 222 3328
2019-01-17 11:41:28 GMT 48.646820 9.078933 6,550 204 219 3520
2019-01-17 11:41:25 GMT 48.650711 9.081468 6,425 207 218 3648
2019-01-17 11:41:17 GMT 48.656586 9.086994 5,925 220 215 3648
2019-01-17 11:41:14 GMT 48.658859 9.089848 5,800 223 215 3776
2019-01-17 11:41:10 GMT 48.662521 9.095271 5,450 227 215 4032
2019-01-17 11:41:05 GMT 48.664993 9.099778 5,175 234 216 3776
2019-01-17 11:41:00 GMT 48.667740 9.106328 4,900 243 216 3136
2019-01-17 11:40:56 GMT 48.669807 9.113304 4,625 252 215 2944
2019-01-17 11:40:48 GMT 48.671677 9.122385 4,350 254 213 2048
2019-01-17 11:40:45 GMT 48.673187 9.130554 4,225 255 202 1152
2019-01-17 11:40:39 GMT 48.673950 9.134626 4,150 255 197 1216
2019-01-17 11:40:34 GMT 48.675438 9.142577 4,000 255 188 1728
2019-01-17 11:40:30 GMT 48.676464 9.148359 3,900 256 186 1600
2019-01-17 11:40:25 GMT 48.677860 9.156237 3,675 255 181 1728
2019-01-17 11:40:18 GMT 48.678745 9.161297 3,575 255 176 1792
2019-01-17 11:40:13 GMT 48.679962 9.167739 3,425 255 170 1728

Making use of Plane Finder data

You are free to use the raw flight data, aircraft information and images provided in this report for your own purposes provided the data is correctly attributed to Plane Finder. We ask that you please credit Plane Finder and link to planefinder.net in close proximity to the content.

Optionally one of the following logos (no smaller then 150x24px) can be used and must link to planefinder.net

Embedding the Plane Finder map

You are welcome to embed the Plane Finder playback map on your website to offer visitors a more interactive experience. We suggest using the following HTML code:

<iframe src="//planefinder.net/data/report/EW2682-D-AGWH-7700-squawk-2019-01-17/map" width="800" height="600" seamless="seamless"></iframe>

Where our data comes from

Plane Finder has a global network of data feeds and antenna radars that receive data broadcast directly from aircraft. The primary technologies used are ADS-B and MLAT. We also show feeds from the FAA and a FLARM glider feed.

Click here to find out more about the Plane Finder network.

How we collect our data